<?xml version="1.0" encoding="UTF-8" standalone="no" ?>
<gpx xmlns="http://www.topografix.com/GPX/1/1" xmlns:xsi="http://www.w3.org/2001/XMLSchema-instance" xsi:schemaLocation="http://www.topografix.com/GPX/1/1 http://www.topografix.com/GPX/1/1/gpx.xsd" version="1.1" creator="VisuGPX - https://www.visugpx.com">
  <metadata>
    <name>64 - PEDESTRE - Randonnée Montesquiou - Monein</name>
    <desc><![CDATA[Balade du jour]]></desc>
  </metadata>
  <trk>
    <name><![CDATA[ACTIVE LOG 009]]></name>
    <trkseg>
      <trkpt lat="43.28502" lon="-0.5577">
        <ele>140.48986816406</ele>
        <time>2015-04-12T06:44:50Z</time>
      </trkpt>
      <trkpt lat="43.28499" lon="-0.55766">
        <ele>145.29638671875</ele>
        <time>2015-04-12T06:44:59Z</time>
      </trkpt>
      <trkpt lat="43.28498" lon="-0.55768">
        <ele>149.62231445312</ele>
        <time>2015-04-12T06:45:00Z</time>
      </trkpt>
      <trkpt lat="43.28497" lon="-0.55769">
        <ele>153.46765136719</ele>
        <time>2015-04-12T06:45:01Z</time>
      </trkpt>
      <trkpt lat="43.28496" lon="-0.5577">
        <ele>157.79357910156</ele>
        <time>2015-04-12T06:45:04Z</time>
      </trkpt>
      <trkpt lat="43.28495" lon="-0.55771">
        <ele>161.63891601562</ele>
        <time>2015-04-12T06:45:05Z</time>
      </trkpt>
      <trkpt lat="43.28495" lon="-0.55772">
        <ele>161.63891601562</ele>
        <time>2015-04-12T06:45:06Z</time>
      </trkpt>
      <trkpt lat="43.28494" lon="-0.55773">
        <ele>165.96472167969</ele>
        <time>2015-04-12T06:45:09Z</time>
      </trkpt>
      <trkpt lat="43.28493" lon="-0.55774">
        <ele>169.32946777344</ele>
        <time>2015-04-12T06:45:10Z</time>
      </trkpt>
      <trkpt lat="43.28493" lon="-0.55774">
        <ele>172.69396972656</ele>
        <time>2015-04-12T06:45:11Z</time>
      </trkpt>
      <trkpt lat="43.28493" lon="-0.55774">
        <ele>178.94262695312</ele>
        <time>2015-04-12T06:45:13Z</time>
      </trkpt>
      <trkpt lat="43.28492" lon="-0.55775">
        <ele>184.71057128906</ele>
        <time>2015-04-12T06:45:15Z</time>
      </trkpt>
      <trkpt lat="43.28491" lon="-0.55776">
        <ele>189.99768066406</ele>
        <time>2015-04-12T06:45:17Z</time>
      </trkpt>
      <trkpt lat="43.28492" lon="-0.55775">
        <ele>193.3623046875</ele>
        <time>2015-04-12T06:45:18Z</time>
      </trkpt>
      <trkpt lat="43.28493" lon="-0.55773">
        <ele>198.1689453125</ele>
        <time>2015-04-12T06:45:20Z</time>
      </trkpt>
      <trkpt lat="43.28493" lon="-0.55773">
        <ele>202.97546386719</ele>
        <time>2015-04-12T06:45:22Z</time>
      </trkpt>
      <trkpt lat="43.28493" lon="-0.55773">
        <ele>207.30139160156</ele>
        <time>2015-04-12T06:45:24Z</time>
      </trkpt>
      <trkpt lat="43.28493" lon="-0.55773">
        <ele>211.62744140625</ele>
        <time>2015-04-12T06:45:26Z</time>
      </trkpt>
      <trkpt lat="43.28493" lon="-0.55773">
        <ele>215.95324707031</ele>
        <time>2015-04-12T06:45:28Z</time>
      </trkpt>
      <trkpt lat="43.28493" lon="-0.55772">
        <ele>219.79858398438</ele>
        <time>2015-04-12T06:45:30Z</time>
      </trkpt>
      <trkpt lat="43.28493" lon="-0.55771">
        <ele>223.64379882812</ele>
        <time>2015-04-12T06:45:32Z</time>
      </trkpt>
      <trkpt lat="43.28493" lon="-0.55771">
        <ele>227.00854492188</ele>
        <time>2015-04-12T06:45:34Z</time>
      </trkpt>
      <trkpt lat="43.28493" lon="-0.55771">
        <ele>230.373046875</ele>
        <time>2015-04-12T06:45:36Z</time>
      </trkpt>
      <trkpt lat="43.28493" lon="-0.55771">
        <ele>233.25708007812</ele>
        <time>2015-04-12T06:45:38Z</time>
      </trkpt>
      <trkpt lat="43.28492" lon="-0.55771">
        <ele>237.58288574219</ele>
        <time>2015-04-12T06:45:41Z</time>
      </trkpt>
      <trkpt lat="43.28492" lon="-0.55771">
        <ele>241.42822265625</ele>
        <time>2015-04-12T06:45:44Z</time>
      </trkpt>
      <trkpt lat="43.28492" lon="-0.5577">
        <ele>244.79284667969</ele>
        <time>2015-04-12T06:45:48Z</time>
      </trkpt>
      <trkpt lat="43.28492" lon="-0.5577">
        <ele>248.15759277344</ele>
        <time>2015-04-12T06:45:52Z</time>
      </trkpt>
      <trkpt lat="43.28492" lon="-0.5577">
        <ele>248.15759277344</ele>
        <time>2015-04-12T06:45:53Z</time>
      </trkpt>
      <trkpt lat="43.28492" lon="-0.5577">
        <ele>251.52209472656</ele>
        <time>2015-04-12T06:45:58Z</time>
      </trkpt>
      <trkpt lat="43.28494" lon="-0.5577">
        <ele>255.36730957031</ele>
        <time>2015-04-12T06:46:04Z</time>
      </trkpt>
      <trkpt lat="43.28493" lon="-0.5577">
        <ele>258.73193359375</ele>
        <time>2015-04-12T06:46:13Z</time>
      </trkpt>
      <trkpt lat="43.28493" lon="-0.55771">
        <ele>262.09655761719</ele>
        <time>2015-04-12T06:46:22Z</time>
      </trkpt>
      <trkpt lat="43.28493" lon="-0.55773">
        <ele>264.49987792969</ele>
        <time>2015-04-12T06:46:35Z</time>
      </trkpt>
      <trkpt lat="43.28493" lon="-0.55774">
        <ele>266.90319824219</ele>
        <time>2015-04-12T06:47:12Z</time>
      </trkpt>
      <trkpt lat="43.28493" lon="-0.55776">
        <ele>267.38391113281</ele>
        <time>2015-04-12T06:47:40Z</time>
      </trkpt>
      <trkpt lat="43.28493" lon="-0.55776">
        <ele>266.90319824219</ele>
        <time>2015-04-12T06:47:41Z</time>
      </trkpt>
      <trkpt lat="43.28479" lon="-0.55782">
        <ele>266.42248535156</ele>
        <time>2015-04-12T06:47:49Z</time>
      </trkpt>
      <trkpt lat="43.28487" lon="-0.55778">
        <ele>267.86450195312</ele>
        <time>2015-04-12T06:48:11Z</time>
      </trkpt>
      <trkpt lat="43.28491" lon="-0.55777">
        <ele>266.90319824219</ele>
        <time>2015-04-12T06:48:30Z</time>
      </trkpt>
      <trkpt lat="43.28492" lon="-0.55775">
        <ele>267.86450195312</ele>
        <time>2015-04-12T06:48:55Z</time>
      </trkpt>
      <trkpt lat="43.28489" lon="-0.55776">
        <ele>268.34509277344</ele>
        <time>2015-04-12T06:49:17Z</time>
      </trkpt>
      <trkpt lat="43.2848" lon="-0.55779">
        <ele>268.82580566406</ele>
        <time>2015-04-12T06:49:32Z</time>
      </trkpt>
      <trkpt lat="43.28473" lon="-0.55783">
        <ele>268.82580566406</ele>
        <time>2015-04-12T06:49:45Z</time>
      </trkpt>
      <trkpt lat="43.2847" lon="-0.55788">
        <ele>270.26770019531</ele>
        <time>2015-04-12T06:49:58Z</time>
      </trkpt>
      <trkpt lat="43.28468" lon="-0.55786">
        <ele>270.26770019531</ele>
        <time>2015-04-12T06:50:18Z</time>
      </trkpt>
      <trkpt lat="43.28468" lon="-0.55787">
        <ele>270.26770019531</ele>
        <time>2015-04-12T06:50:52Z</time>
      </trkpt>
      <trkpt lat="43.28464" lon="-0.5579">
        <ele>270.74841308594</ele>
        <time>2015-04-12T06:51:32Z</time>
      </trkpt>
      <trkpt lat="43.28458" lon="-0.55787">
        <ele>270.74841308594</ele>
        <time>2015-04-12T06:51:44Z</time>
      </trkpt>
      <trkpt lat="43.28446" lon="-0.55787">
        <ele>272.67114257812</ele>
        <time>2015-04-12T06:51:58Z</time>
      </trkpt>
      <trkpt lat="43.28428" lon="-0.55783">
        <ele>274.11303710938</ele>
        <time>2015-04-12T06:52:15Z</time>
      </trkpt>
      <trkpt lat="43.2842" lon="-0.55781">
        <ele>274.11303710938</ele>
        <time>2015-04-12T06:52:22Z</time>
      </trkpt>
    </trkseg>
  </trk>
  <trk>
    <name><![CDATA[ACTIVE LOG 010]]></name>
    <trkseg>
      <trkpt lat="43.28404" lon="-0.55778">
        <ele>277.95825195312</ele>
        <time>2015-04-12T06:52:40Z</time>
      </trkpt>
      <trkpt lat="43.28403" lon="-0.55778">
        <ele>277.95825195312</ele>
        <time>2015-04-12T06:52:41Z</time>
      </trkpt>
      <trkpt lat="43.28402" lon="-0.55778">
        <ele>277.47766113281</ele>
        <time>2015-04-12T06:52:42Z</time>
      </trkpt>
      <trkpt lat="43.28378" lon="-0.55774">
        <ele>279.40026855469</ele>
        <time>2015-04-12T06:53:04Z</time>
      </trkpt>
      <trkpt lat="43.28369" lon="-0.55772">
        <ele>279.880859375</ele>
        <time>2015-04-12T06:53:15Z</time>
      </trkpt>
      <trkpt lat="43.28353" lon="-0.55771">
        <ele>282.28430175781</ele>
        <time>2015-04-12T06:53:29Z</time>
      </trkpt>
      <trkpt lat="43.28337" lon="-0.55767">
        <ele>282.28430175781</ele>
        <time>2015-04-12T06:53:43Z</time>
      </trkpt>
      <trkpt lat="43.2832" lon="-0.55761">
        <ele>283.72619628906</ele>
        <time>2015-04-12T06:53:59Z</time>
      </trkpt>
      <trkpt lat="43.28307" lon="-0.55753">
        <ele>283.24560546875</ele>
        <time>2015-04-12T06:54:14Z</time>
      </trkpt>
      <trkpt lat="43.28291" lon="-0.55746">
        <ele>280.36169433594</ele>
        <time>2015-04-12T06:54:30Z</time>
      </trkpt>
      <trkpt lat="43.28272" lon="-0.55741">
        <ele>279.40026855469</ele>
        <time>2015-04-12T06:54:45Z</time>
      </trkpt>
      <trkpt lat="43.2825" lon="-0.55737">
        <ele>279.40026855469</ele>
        <time>2015-04-12T06:55:02Z</time>
      </trkpt>
      <trkpt lat="43.28247" lon="-0.55736">
        <ele>279.40026855469</ele>
        <time>2015-04-12T06:55:05Z</time>
      </trkpt>
      <trkpt lat="43.28238" lon="-0.55737">
        <ele>279.40026855469</ele>
        <time>2015-04-12T06:55:10Z</time>
      </trkpt>
      <trkpt lat="43.28209" lon="-0.55739">
        <ele>280.84240722656</ele>
        <time>2015-04-12T06:55:31Z</time>
      </trkpt>
      <trkpt lat="43.28189" lon="-0.55739">
        <ele>281.80358886719</ele>
        <time>2015-04-12T06:55:48Z</time>
      </trkpt>
      <trkpt lat="43.28162" lon="-0.55738">
        <ele>284.20690917969</ele>
        <time>2015-04-12T06:56:08Z</time>
      </trkpt>
      <trkpt lat="43.28139" lon="-0.55735">
        <ele>286.12951660156</ele>
        <time>2015-04-12T06:56:28Z</time>
      </trkpt>
      <trkpt lat="43.28116" lon="-0.55727">
        <ele>287.0908203125</ele>
        <time>2015-04-12T06:56:48Z</time>
      </trkpt>
      <trkpt lat="43.28093" lon="-0.55714">
        <ele>287.57141113281</ele>
        <time>2015-04-12T06:57:06Z</time>
      </trkpt>
      <trkpt lat="43.28068" lon="-0.55696">
        <ele>289.01354980469</ele>
        <time>2015-04-12T06:57:27Z</time>
      </trkpt>
      <trkpt lat="43.28049" lon="-0.55676">
        <ele>290.93615722656</ele>
        <time>2015-04-12T06:57:46Z</time>
      </trkpt>
      <trkpt lat="43.28034" lon="-0.55658">
        <ele>292.37817382812</ele>
        <time>2015-04-12T06:58:02Z</time>
      </trkpt>
      <trkpt lat="43.28021" lon="-0.55643">
        <ele>295.26196289062</ele>
        <time>2015-04-12T06:58:16Z</time>
      </trkpt>
      <trkpt lat="43.28007" lon="-0.55632">
        <ele>298.62670898438</ele>
        <time>2015-04-12T06:58:30Z</time>
      </trkpt>
      <trkpt lat="43.2799" lon="-0.55624">
        <ele>300.06872558594</ele>
        <time>2015-04-12T06:58:45Z</time>
      </trkpt>
      <trkpt lat="43.27969" lon="-0.55614">
        <ele>301.99133300781</ele>
        <time>2015-04-12T06:59:03Z</time>
      </trkpt>
      <trkpt lat="43.27942" lon="-0.55602">
        <ele>302.47192382812</ele>
        <time>2015-04-12T06:59:26Z</time>
      </trkpt>
      <trkpt lat="43.27927" lon="-0.55589">
        <ele>302.47192382812</ele>
        <time>2015-04-12T06:59:42Z</time>
      </trkpt>
      <trkpt lat="43.2791" lon="-0.55579">
        <ele>300.54931640625</ele>
        <time>2015-04-12T06:59:59Z</time>
      </trkpt>
      <trkpt lat="43.2789" lon="-0.55569">
        <ele>300.06872558594</ele>
        <time>2015-04-12T07:00:17Z</time>
      </trkpt>
      <trkpt lat="43.27866" lon="-0.55564">
        <ele>300.06872558594</ele>
        <time>2015-04-12T07:00:37Z</time>
      </trkpt>
      <trkpt lat="43.27847" lon="-0.55555">
        <ele>300.54931640625</ele>
        <time>2015-04-12T07:00:57Z</time>
      </trkpt>
      <trkpt lat="43.27827" lon="-0.55546">
        <ele>300.54931640625</ele>
        <time>2015-04-12T07:01:17Z</time>
      </trkpt>
      <trkpt lat="43.27805" lon="-0.55537">
        <ele>301.02990722656</ele>
        <time>2015-04-12T07:01:35Z</time>
      </trkpt>
      <trkpt lat="43.27786" lon="-0.5553">
        <ele>301.02990722656</ele>
        <time>2015-04-12T07:01:53Z</time>
      </trkpt>
      <trkpt lat="43.27769" lon="-0.55524">
        <ele>301.51062011719</ele>
        <time>2015-04-12T07:02:09Z</time>
      </trkpt>
      <trkpt lat="43.27749" lon="-0.55513">
        <ele>301.51062011719</ele>
        <time>2015-04-12T07:02:27Z</time>
      </trkpt>
      <trkpt lat="43.27732" lon="-0.55508">
        <ele>301.51062011719</ele>
        <time>2015-04-12T07:02:42Z</time>
      </trkpt>
      <trkpt lat="43.27711" lon="-0.55496">
        <ele>301.51062011719</ele>
        <time>2015-04-12T07:03:03Z</time>
      </trkpt>
      <trkpt lat="43.27694" lon="-0.55488">
        <ele>301.02990722656</ele>
        <time>2015-04-12T07:03:20Z</time>
      </trkpt>
      <trkpt lat="43.27676" lon="-0.55483">
        <ele>301.51062011719</ele>
        <time>2015-04-12T07:03:35Z</time>
      </trkpt>
      <trkpt lat="43.27654" lon="-0.55476">
        <ele>301.99133300781</ele>
        <time>2015-04-12T07:03:51Z</time>
      </trkpt>
      <trkpt lat="43.27634" lon="-0.55469">
        <ele>301.99133300781</ele>
        <time>2015-04-12T07:04:09Z</time>
      </trkpt>
      <trkpt lat="43.27617" lon="-0.55464">
        <ele>302.47192382812</ele>
        <time>2015-04-12T07:04:22Z</time>
      </trkpt>
      <trkpt lat="43.27616" lon="-0.55463">
        <ele>302.95251464844</ele>
        <time>2015-04-12T07:04:23Z</time>
      </trkpt>
      <trkpt lat="43.27589" lon="-0.55457">
        <ele>304.39465332031</ele>
        <time>2015-04-12T07:04:43Z</time>
      </trkpt>
      <trkpt lat="43.27564" lon="-0.55447">
        <ele>304.39465332031</ele>
        <time>2015-04-12T07:05:03Z</time>
      </trkpt>
      <trkpt lat="43.27546" lon="-0.5543">
        <ele>305.83666992188</ele>
        <time>2015-04-12T07:05:21Z</time>
      </trkpt>
      <trkpt lat="43.27526" lon="-0.55408">
        <ele>306.7978515625</ele>
        <time>2015-04-12T07:05:41Z</time>
      </trkpt>
      <trkpt lat="43.27509" lon="-0.55388">
        <ele>307.75927734375</ele>
        <time>2015-04-12T07:05:59Z</time>
      </trkpt>
      <trkpt lat="43.27492" lon="-0.55366">
        <ele>308.72045898438</ele>
        <time>2015-04-12T07:06:19Z</time>
      </trkpt>
      <trkpt lat="43.27475" lon="-0.55342">
        <ele>310.64306640625</ele>
        <time>2015-04-12T07:06:39Z</time>
      </trkpt>
      <trkpt lat="43.27454" lon="-0.55321">
        <ele>312.56579589844</ele>
        <time>2015-04-12T07:07:01Z</time>
      </trkpt>
      <trkpt lat="43.27436" lon="-0.55305">
        <ele>314.96911621094</ele>
        <time>2015-04-12T07:07:21Z</time>
      </trkpt>
      <trkpt lat="43.27431" lon="-0.55303">
        <ele>316.41101074219</ele>
        <time>2015-04-12T07:07:26Z</time>
      </trkpt>
      <trkpt lat="43.27422" lon="-0.55297">
        <ele>317.85302734375</ele>
        <time>2015-04-12T07:07:37Z</time>
      </trkpt>
      <trkpt lat="43.27406" lon="-0.55281">
        <ele>320.25634765625</ele>
        <time>2015-04-12T07:07:56Z</time>
      </trkpt>
      <trkpt lat="43.27402" lon="-0.55276">
        <ele>321.2177734375</ele>
        <time>2015-04-12T07:08:02Z</time>
      </trkpt>
      <trkpt lat="43.27399" lon="-0.55273">
        <ele>321.2177734375</ele>
        <time>2015-04-12T07:08:06Z</time>
      </trkpt>
      <trkpt lat="43.27387" lon="-0.55257">
        <ele>320.73706054688</ele>
        <time>2015-04-12T07:08:23Z</time>
      </trkpt>
      <trkpt lat="43.27379" lon="-0.55246">
        <ele>321.2177734375</ele>
        <time>2015-04-12T07:08:36Z</time>
      </trkpt>
      <trkpt lat="43.27369" lon="-0.55228">
        <ele>322.17895507812</ele>
        <time>2015-04-12T07:08:53Z</time>
      </trkpt>
      <trkpt lat="43.27358" lon="-0.55212">
        <ele>322.17895507812</ele>
        <time>2015-04-12T07:09:10Z</time>
      </trkpt>
      <trkpt lat="43.27345" lon="-0.55194">
        <ele>323.14038085938</ele>
        <time>2015-04-12T07:09:27Z</time>
      </trkpt>
      <trkpt lat="43.27332" lon="-0.55176">
        <ele>322.17895507812</ele>
        <time>2015-04-12T07:09:44Z</time>
      </trkpt>
      <trkpt lat="43.27319" lon="-0.55149">
        <ele>321.2177734375</ele>
        <time>2015-04-12T07:10:05Z</time>
      </trkpt>
      <trkpt lat="43.27309" lon="-0.55115">
        <ele>320.25634765625</ele>
        <time>2015-04-12T07:10:29Z</time>
      </trkpt>
      <trkpt lat="43.27297" lon="-0.55099">
        <ele>317.85302734375</ele>
        <time>2015-04-12T07:10:45Z</time>
      </trkpt>
      <trkpt lat="43.27283" lon="-0.55093">
        <ele>314.0078125</ele>
        <time>2015-04-12T07:11:01Z</time>
      </trkpt>
      <trkpt lat="43.27282" lon="-0.55093">
        <ele>314.0078125</ele>
        <time>2015-04-12T07:11:02Z</time>
      </trkpt>
      <trkpt lat="43.27276" lon="-0.5509">
        <ele>314.0078125</ele>
        <time>2015-04-12T07:11:07Z</time>
      </trkpt>
      <trkpt lat="43.27274" lon="-0.55088">
        <ele>313.04650878906</ele>
        <time>2015-04-12T07:11:09Z</time>
      </trkpt>
      <trkpt lat="43.27272" lon="-0.55088">
        <ele>313.52722167969</ele>
        <time>2015-04-12T07:11:11Z</time>
      </trkpt>
      <trkpt lat="43.27267" lon="-0.55086">
        <ele>313.52722167969</ele>
        <time>2015-04-12T07:11:15Z</time>
      </trkpt>
      <trkpt lat="43.27264" lon="-0.55084">
        <ele>313.04650878906</ele>
        <time>2015-04-12T07:11:18Z</time>
      </trkpt>
      <trkpt lat="43.27259" lon="-0.55083">
        <ele>313.04650878906</ele>
        <time>2015-04-12T07:11:22Z</time>
      </trkpt>
      <trkpt lat="43.27243" lon="-0.55073">
        <ele>313.04650878906</ele>
        <time>2015-04-12T07:11:38Z</time>
      </trkpt>
      <trkpt lat="43.27232" lon="-0.55068">
        <ele>312.56579589844</ele>
        <time>2015-04-12T07:11:48Z</time>
      </trkpt>
      <trkpt lat="43.27218" lon="-0.55061">
        <ele>314.0078125</ele>
        <time>2015-04-12T07:12:02Z</time>
      </trkpt>
      <trkpt lat="43.27201" lon="-0.5505">
        <ele>314.48840332031</ele>
        <time>2015-04-12T07:12:19Z</time>
      </trkpt>
      <trkpt lat="43.27198" lon="-0.55048">
        <ele>314.48840332031</ele>
        <time>2015-04-12T07:12:22Z</time>
      </trkpt>
      <trkpt lat="43.2719" lon="-0.55043">
        <ele>314.48840332031</ele>
        <time>2015-04-12T07:12:29Z</time>
      </trkpt>
      <trkpt lat="43.27185" lon="-0.55041">
        <ele>314.96911621094</ele>
        <time>2015-04-12T07:12:34Z</time>
      </trkpt>
      <trkpt lat="43.27182" lon="-0.5504">
        <ele>314.48840332031</ele>
        <time>2015-04-12T07:12:37Z</time>
      </trkpt>
      <trkpt lat="43.27167" lon="-0.55033">
        <ele>314.96911621094</ele>
        <time>2015-04-12T07:12:50Z</time>
      </trkpt>
      <trkpt lat="43.27164" lon="-0.55031">
        <ele>314.96911621094</ele>
        <time>2015-04-12T07:12:54Z</time>
      </trkpt>
      <trkpt lat="43.27145" lon="-0.55021">
        <ele>314.96911621094</ele>
        <time>2015-04-12T07:13:14Z</time>
      </trkpt>
      <trkpt lat="43.27128" lon="-0.55012">
        <ele>314.0078125</ele>
        <time>2015-04-12T07:13:31Z</time>
      </trkpt>
      <trkpt lat="43.27108" lon="-0.55002">
        <ele>313.04650878906</ele>
        <time>2015-04-12T07:13:51Z</time>
      </trkpt>
      <trkpt lat="43.2709" lon="-0.54991">
        <ele>312.56579589844</ele>
        <time>2015-04-12T07:14:09Z</time>
      </trkpt>
      <trkpt lat="43.27071" lon="-0.54989">
        <ele>310.16247558594</ele>
        <time>2015-04-12T07:14:27Z</time>
      </trkpt>
      <trkpt lat="43.2706" lon="-0.54988">
        <ele>308.72045898438</ele>
        <time>2015-04-12T07:14:37Z</time>
      </trkpt>
      <trkpt lat="43.2704" lon="-0.54977">
        <ele>308.23986816406</ele>
        <time>2015-04-12T07:14:56Z</time>
      </trkpt>
      <trkpt lat="43.27021" lon="-0.54965">
        <ele>308.72045898438</ele>
        <time>2015-04-12T07:15:15Z</time>
      </trkpt>
      <trkpt lat="43.27008" lon="-0.54958">
        <ele>308.72045898438</ele>
        <time>2015-04-12T07:15:28Z</time>
      </trkpt>
      <trkpt lat="43.2699" lon="-0.54946">
        <ele>308.72045898438</ele>
        <time>2015-04-12T07:15:46Z</time>
      </trkpt>
      <trkpt lat="43.2697" lon="-0.54934">
        <ele>308.72045898438</ele>
        <time>2015-04-12T07:16:04Z</time>
      </trkpt>
      <trkpt lat="43.26951" lon="-0.54923">
        <ele>309.201171875</ele>
        <time>2015-04-12T07:16:23Z</time>
      </trkpt>
      <trkpt lat="43.26933" lon="-0.54913">
        <ele>310.16247558594</ele>
        <time>2015-04-12T07:16:41Z</time>
      </trkpt>
      <trkpt lat="43.26915" lon="-0.54909">
        <ele>310.16247558594</ele>
        <time>2015-04-12T07:16:57Z</time>
      </trkpt>
      <trkpt lat="43.26897" lon="-0.54907">
        <ele>310.64306640625</ele>
        <time>2015-04-12T07:17:13Z</time>
      </trkpt>
      <trkpt lat="43.26879" lon="-0.54905">
        <ele>310.64306640625</ele>
        <time>2015-04-12T07:17:30Z</time>
      </trkpt>
      <trkpt lat="43.26861" lon="-0.54903">
        <ele>311.6044921875</ele>
        <time>2015-04-12T07:17:46Z</time>
      </trkpt>
      <trkpt lat="43.26842" lon="-0.54902">
        <ele>312.08520507812</ele>
        <time>2015-04-12T07:18:03Z</time>
      </trkpt>
      <trkpt lat="43.26825" lon="-0.54899">
        <ele>312.08520507812</ele>
        <time>2015-04-12T07:18:19Z</time>
      </trkpt>
      <trkpt lat="43.26807" lon="-0.54899">
        <ele>313.52722167969</ele>
        <time>2015-04-12T07:18:37Z</time>
      </trkpt>
      <trkpt lat="43.26806" lon="-0.54899">
        <ele>313.52722167969</ele>
        <time>2015-04-12T07:18:38Z</time>
      </trkpt>
      <trkpt lat="43.26801" lon="-0.54885">
        <ele>316.89172363281</ele>
        <time>2015-04-12T07:18:52Z</time>
      </trkpt>
      <trkpt lat="43.26799" lon="-0.54882">
        <ele>317.37243652344</ele>
        <time>2015-04-12T07:18:55Z</time>
      </trkpt>
      <trkpt lat="43.26785" lon="-0.5487">
        <ele>320.25634765625</ele>
        <time>2015-04-12T07:19:13Z</time>
      </trkpt>
      <trkpt lat="43.26769" lon="-0.54861">
        <ele>320.73706054688</ele>
        <time>2015-04-12T07:19:31Z</time>
      </trkpt>
      <trkpt lat="43.26756" lon="-0.54853">
        <ele>324.1015625</ele>
        <time>2015-04-12T07:19:44Z</time>
      </trkpt>
      <trkpt lat="43.26731" lon="-0.54835">
        <ele>325.06298828125</ele>
        <time>2015-04-12T07:20:06Z</time>
      </trkpt>
      <trkpt lat="43.26711" lon="-0.54818">
        <ele>325.54357910156</ele>
        <time>2015-04-12T07:20:24Z</time>
      </trkpt>
      <trkpt lat="43.26697" lon="-0.54807">
        <ele>326.02416992188</ele>
        <time>2015-04-12T07:20:36Z</time>
      </trkpt>
      <trkpt lat="43.26694" lon="-0.54802">
        <ele>325.54357910156</ele>
        <time>2015-04-12T07:20:41Z</time>
      </trkpt>
      <trkpt lat="43.26687" lon="-0.54798">
        <ele>325.54357910156</ele>
        <time>2015-04-12T07:20:49Z</time>
      </trkpt>
      <trkpt lat="43.2668" lon="-0.54804">
        <ele>324.1015625</ele>
        <time>2015-04-12T07:20:57Z</time>
      </trkpt>
      <trkpt lat="43.26677" lon="-0.54799">
        <ele>323.14038085938</ele>
        <time>2015-04-12T07:21:03Z</time>
      </trkpt>
      <trkpt lat="43.26689" lon="-0.54772">
        <ele>324.58227539062</ele>
        <time>2015-04-12T07:21:24Z</time>
      </trkpt>
      <trkpt lat="43.26702" lon="-0.54753">
        <ele>327.46618652344</ele>
        <time>2015-04-12T07:21:38Z</time>
      </trkpt>
      <trkpt lat="43.2672" lon="-0.5473">
        <ele>328.90832519531</ele>
        <time>2015-04-12T07:21:58Z</time>
      </trkpt>
      <trkpt lat="43.26732" lon="-0.54703">
        <ele>329.38891601562</ele>
        <time>2015-04-12T07:22:15Z</time>
      </trkpt>
      <trkpt lat="43.26731" lon="-0.54672">
        <ele>329.38891601562</ele>
        <time>2015-04-12T07:22:32Z</time>
      </trkpt>
      <trkpt lat="43.26733" lon="-0.54638">
        <ele>329.86950683594</ele>
        <time>2015-04-12T07:22:49Z</time>
      </trkpt>
      <trkpt lat="43.26737" lon="-0.546">
        <ele>329.86950683594</ele>
        <time>2015-04-12T07:23:06Z</time>
      </trkpt>
      <trkpt lat="43.2674" lon="-0.54566">
        <ele>330.35021972656</ele>
        <time>2015-04-12T07:23:23Z</time>
      </trkpt>
      <trkpt lat="43.26742" lon="-0.54534">
        <ele>330.83093261719</ele>
        <time>2015-04-12T07:23:40Z</time>
      </trkpt>
      <trkpt lat="43.26742" lon="-0.54521">
        <ele>330.35021972656</ele>
        <time>2015-04-12T07:23:47Z</time>
      </trkpt>
      <trkpt lat="43.26742" lon="-0.54494">
        <ele>331.3115234375</ele>
        <time>2015-04-12T07:24:01Z</time>
      </trkpt>
      <trkpt lat="43.2674" lon="-0.54458">
        <ele>333.23413085938</ele>
        <time>2015-04-12T07:24:21Z</time>
      </trkpt>
      <trkpt lat="43.26734" lon="-0.54421">
        <ele>333.71472167969</ele>
        <time>2015-04-12T07:24:41Z</time>
      </trkpt>
      <trkpt lat="43.26727" lon="-0.54384">
        <ele>335.15673828125</ele>
        <time>2015-04-12T07:25:01Z</time>
      </trkpt>
      <trkpt lat="43.26721" lon="-0.54354">
        <ele>338.521484375</ele>
        <time>2015-04-12T07:25:18Z</time>
      </trkpt>
      <trkpt lat="43.26721" lon="-0.54317">
        <ele>340.44409179688</ele>
        <time>2015-04-12T07:25:39Z</time>
      </trkpt>
      <trkpt lat="43.26721" lon="-0.54282">
        <ele>339.48266601562</ele>
        <time>2015-04-12T07:25:57Z</time>
      </trkpt>
      <trkpt lat="43.26718" lon="-0.54267">
        <ele>338.521484375</ele>
        <time>2015-04-12T07:26:06Z</time>
      </trkpt>
      <trkpt lat="43.26713" lon="-0.54242">
        <ele>336.59887695312</ele>
        <time>2015-04-12T07:26:23Z</time>
      </trkpt>
      <trkpt lat="43.2671" lon="-0.5423">
        <ele>336.59887695312</ele>
        <time>2015-04-12T07:26:32Z</time>
      </trkpt>
      <trkpt lat="43.26706" lon="-0.54203">
        <ele>334.19543457031</ele>
        <time>2015-04-12T07:26:47Z</time>
      </trkpt>
      <trkpt lat="43.26703" lon="-0.54174">
        <ele>333.71472167969</ele>
        <time>2015-04-12T07:27:02Z</time>
      </trkpt>
      <trkpt lat="43.26698" lon="-0.54153">
        <ele>333.71472167969</ele>
        <time>2015-04-12T07:27:15Z</time>
      </trkpt>
      <trkpt lat="43.26697" lon="-0.54141">
        <ele>333.71472167969</ele>
        <time>2015-04-12T07:27:21Z</time>
      </trkpt>
      <trkpt lat="43.26687" lon="-0.5412">
        <ele>331.79211425781</ele>
        <time>2015-04-12T07:27:32Z</time>
      </trkpt>
      <trkpt lat="43.26681" lon="-0.54108">
        <ele>331.3115234375</ele>
        <time>2015-04-12T07:27:40Z</time>
      </trkpt>
      <trkpt lat="43.26677" lon="-0.54099">
        <ele>330.83093261719</ele>
        <time>2015-04-12T07:27:46Z</time>
      </trkpt>
      <trkpt lat="43.26659" lon="-0.54075">
        <ele>329.86950683594</ele>
        <time>2015-04-12T07:28:03Z</time>
      </trkpt>
      <trkpt lat="43.26643" lon="-0.54057">
        <ele>329.86950683594</ele>
        <time>2015-04-12T07:28:19Z</time>
      </trkpt>
      <trkpt lat="43.26622" lon="-0.54045">
        <ele>330.35021972656</ele>
        <time>2015-04-12T07:28:34Z</time>
      </trkpt>
      <trkpt lat="43.26602" lon="-0.54031">
        <ele>332.27282714844</ele>
        <time>2015-04-12T07:28:50Z</time>
      </trkpt>
      <trkpt lat="43.26597" lon="-0.54029">
        <ele>332.27282714844</ele>
        <time>2015-04-12T07:28:54Z</time>
      </trkpt>
      <trkpt lat="43.26584" lon="-0.5402">
        <ele>332.75354003906</ele>
        <time>2015-04-12T07:29:06Z</time>
      </trkpt>
      <trkpt lat="43.26563" lon="-0.54001">
        <ele>333.71472167969</ele>
        <time>2015-04-12T07:29:25Z</time>
      </trkpt>
      <trkpt lat="43.26549" lon="-0.53988">
        <ele>334.19543457031</ele>
        <time>2015-04-12T07:29:41Z</time>
      </trkpt>
      <trkpt lat="43.2653" lon="-0.53963">
        <ele>333.71472167969</ele>
        <time>2015-04-12T07:30:01Z</time>
      </trkpt>
      <trkpt lat="43.26512" lon="-0.53932">
        <ele>332.27282714844</ele>
        <time>2015-04-12T07:30:22Z</time>
      </trkpt>
      <trkpt lat="43.26491" lon="-0.53902">
        <ele>330.35021972656</ele>
        <time>2015-04-12T07:30:44Z</time>
      </trkpt>
      <trkpt lat="43.26466" lon="-0.53883">
        <ele>328.42761230469</ele>
        <time>2015-04-12T07:31:04Z</time>
      </trkpt>
      <trkpt lat="43.26445" lon="-0.53865">
        <ele>328.42761230469</ele>
        <time>2015-04-12T07:31:21Z</time>
      </trkpt>
      <trkpt lat="43.26426" lon="-0.53853">
        <ele>327.94677734375</ele>
        <time>2015-04-12T07:31:37Z</time>
      </trkpt>
      <trkpt lat="43.2641" lon="-0.5385">
        <ele>326.02416992188</ele>
        <time>2015-04-12T07:31:51Z</time>
      </trkpt>
      <trkpt lat="43.26389" lon="-0.53851">
        <ele>325.54357910156</ele>
        <time>2015-04-12T07:32:07Z</time>
      </trkpt>
      <trkpt lat="43.26369" lon="-0.53854">
        <ele>325.06298828125</ele>
        <time>2015-04-12T07:32:22Z</time>
      </trkpt>
      <trkpt lat="43.26341" lon="-0.53862">
        <ele>324.58227539062</ele>
        <time>2015-04-12T07:32:40Z</time>
      </trkpt>
      <trkpt lat="43.26323" lon="-0.53868">
        <ele>323.62097167969</ele>
        <time>2015-04-12T07:32:53Z</time>
      </trkpt>
      <trkpt lat="43.26302" lon="-0.53872">
        <ele>321.69836425781</ele>
        <time>2015-04-12T07:33:08Z</time>
      </trkpt>
      <trkpt lat="43.26278" lon="-0.53876">
        <ele>321.69836425781</ele>
        <time>2015-04-12T07:33:25Z</time>
      </trkpt>
      <trkpt lat="43.26257" lon="-0.53876">
        <ele>320.73706054688</ele>
        <time>2015-04-12T07:33:41Z</time>
      </trkpt>
      <trkpt lat="43.2624" lon="-0.53873">
        <ele>320.73706054688</ele>
        <time>2015-04-12T07:33:55Z</time>
      </trkpt>
      <trkpt lat="43.2622" lon="-0.53866">
        <ele>320.73706054688</ele>
        <time>2015-04-12T07:34:09Z</time>
      </trkpt>
      <trkpt lat="43.26196" lon="-0.53853">
        <ele>320.73706054688</ele>
        <time>2015-04-12T07:34:27Z</time>
      </trkpt>
      <trkpt lat="43.26176" lon="-0.53841">
        <ele>320.73706054688</ele>
        <time>2015-04-12T07:34:41Z</time>
      </trkpt>
      <trkpt lat="43.26157" lon="-0.53818">
        <ele>321.2177734375</ele>
        <time>2015-04-12T07:34:56Z</time>
      </trkpt>
      <trkpt lat="43.26154" lon="-0.53814">
        <ele>320.73706054688</ele>
        <time>2015-04-12T07:34:59Z</time>
      </trkpt>
      <trkpt lat="43.26139" lon="-0.53796">
        <ele>321.2177734375</ele>
        <time>2015-04-12T07:35:15Z</time>
      </trkpt>
      <trkpt lat="43.26117" lon="-0.53771">
        <ele>323.62097167969</ele>
        <time>2015-04-12T07:35:36Z</time>
      </trkpt>
      <trkpt lat="43.26097" lon="-0.53748">
        <ele>325.06298828125</ele>
        <time>2015-04-12T07:35:57Z</time>
      </trkpt>
      <trkpt lat="43.26077" lon="-0.5372">
        <ele>327.94677734375</ele>
        <time>2015-04-12T07:36:20Z</time>
      </trkpt>
      <trkpt lat="43.26064" lon="-0.53705">
        <ele>330.83093261719</ele>
        <time>2015-04-12T07:36:35Z</time>
      </trkpt>
      <trkpt lat="43.26063" lon="-0.53704">
        <ele>331.3115234375</ele>
        <time>2015-04-12T07:36:36Z</time>
      </trkpt>
      <trkpt lat="43.26044" lon="-0.53685">
        <ele>332.27282714844</ele>
        <time>2015-04-12T07:36:56Z</time>
      </trkpt>
      <trkpt lat="43.26032" lon="-0.53673">
        <ele>335.63732910156</ele>
        <time>2015-04-12T07:37:10Z</time>
      </trkpt>
      <trkpt lat="43.26016" lon="-0.53652">
        <ele>338.521484375</ele>
        <time>2015-04-12T07:37:29Z</time>
      </trkpt>
      <trkpt lat="43.26" lon="-0.5363">
        <ele>339.96337890625</ele>
        <time>2015-04-12T07:37:48Z</time>
      </trkpt>
      <trkpt lat="43.25981" lon="-0.53606">
        <ele>340.92468261719</ele>
        <time>2015-04-12T07:38:08Z</time>
      </trkpt>
      <trkpt lat="43.25967" lon="-0.53577">
        <ele>342.36669921875</ele>
        <time>2015-04-12T07:38:27Z</time>
      </trkpt>
      <trkpt lat="43.25951" lon="-0.53538">
        <ele>342.84729003906</ele>
        <time>2015-04-12T07:38:52Z</time>
      </trkpt>
      <trkpt lat="43.25935" lon="-0.53509">
        <ele>344.28942871094</ele>
        <time>2015-04-12T07:39:12Z</time>
      </trkpt>
      <trkpt lat="43.25912" lon="-0.53482">
        <ele>342.84729003906</ele>
        <time>2015-04-12T07:39:35Z</time>
      </trkpt>
      <trkpt lat="43.25891" lon="-0.53463">
        <ele>342.36669921875</ele>
        <time>2015-04-12T07:39:55Z</time>
      </trkpt>
      <trkpt lat="43.25868" lon="-0.53446">
        <ele>341.88598632812</ele>
        <time>2015-04-12T07:40:15Z</time>
      </trkpt>
      <trkpt lat="43.25861" lon="-0.53441">
        <ele>341.88598632812</ele>
        <time>2015-04-12T07:40:21Z</time>
      </trkpt>
      <trkpt lat="43.25865" lon="-0.53415">
        <ele>344.77001953125</ele>
        <time>2015-04-12T07:40:39Z</time>
      </trkpt>
      <trkpt lat="43.25873" lon="-0.5338">
        <ele>346.21203613281</ele>
        <time>2015-04-12T07:41:02Z</time>
      </trkpt>
      <trkpt lat="43.25884" lon="-0.53351">
        <ele>346.21203613281</ele>
        <time>2015-04-12T07:41:21Z</time>
      </trkpt>
      <trkpt lat="43.25899" lon="-0.53362">
        <ele>344.77001953125</ele>
        <time>2015-04-12T07:41:35Z</time>
      </trkpt>
      <trkpt lat="43.25904" lon="-0.53367">
        <ele>344.28942871094</ele>
        <time>2015-04-12T07:41:40Z</time>
      </trkpt>
      <trkpt lat="43.25922" lon="-0.53385">
        <ele>343.80859375</ele>
        <time>2015-04-12T07:41:57Z</time>
      </trkpt>
      <trkpt lat="43.25941" lon="-0.53405">
        <ele>343.80859375</ele>
        <time>2015-04-12T07:42:16Z</time>
      </trkpt>
      <trkpt lat="43.25967" lon="-0.53431">
        <ele>343.32788085938</ele>
        <time>2015-04-12T07:42:40Z</time>
      </trkpt>
      <trkpt lat="43.25988" lon="-0.53452">
        <ele>343.80859375</ele>
        <time>2015-04-12T07:43:00Z</time>
      </trkpt>
      <trkpt lat="43.2601" lon="-0.53471">
        <ele>344.28942871094</ele>
        <time>2015-04-12T07:43:21Z</time>
      </trkpt>
      <trkpt lat="43.26035" lon="-0.53484">
        <ele>344.28942871094</ele>
        <time>2015-04-12T07:43:41Z</time>
      </trkpt>
      <trkpt lat="43.26062" lon="-0.53491">
        <ele>343.80859375</ele>
        <time>2015-04-12T07:44:02Z</time>
      </trkpt>
      <trkpt lat="43.26082" lon="-0.53494">
        <ele>343.80859375</ele>
        <time>2015-04-12T07:44:17Z</time>
      </trkpt>
      <trkpt lat="43.26107" lon="-0.53498">
        <ele>343.32788085938</ele>
        <time>2015-04-12T07:44:38Z</time>
      </trkpt>
      <trkpt lat="43.26135" lon="-0.53501">
        <ele>341.88598632812</ele>
        <time>2015-04-12T07:44:57Z</time>
      </trkpt>
      <trkpt lat="43.26149" lon="-0.535">
        <ele>340.92468261719</ele>
        <time>2015-04-12T07:45:07Z</time>
      </trkpt>
      <trkpt lat="43.26172" lon="-0.53507">
        <ele>339.96337890625</ele>
        <time>2015-04-12T07:45:24Z</time>
      </trkpt>
      <trkpt lat="43.26193" lon="-0.53508">
        <ele>339.48266601562</ele>
        <time>2015-04-12T07:45:41Z</time>
      </trkpt>
      <trkpt lat="43.2621" lon="-0.53503">
        <ele>338.521484375</ele>
        <time>2015-04-12T07:45:55Z</time>
      </trkpt>
      <trkpt lat="43.26212" lon="-0.53503">
        <ele>339.00207519531</ele>
        <time>2015-04-12T07:45:56Z</time>
      </trkpt>
      <trkpt lat="43.26239" lon="-0.53489">
        <ele>337.07946777344</ele>
        <time>2015-04-12T07:46:11Z</time>
      </trkpt>
      <trkpt lat="43.26266" lon="-0.53473">
        <ele>336.1181640625</ele>
        <time>2015-04-12T07:46:26Z</time>
      </trkpt>
      <trkpt lat="43.26288" lon="-0.53462">
        <ele>334.67614746094</ele>
        <time>2015-04-12T07:46:39Z</time>
      </trkpt>
      <trkpt lat="43.2632" lon="-0.53449">
        <ele>332.75354003906</ele>
        <time>2015-04-12T07:46:57Z</time>
      </trkpt>
      <trkpt lat="43.26343" lon="-0.53438">
        <ele>331.79211425781</ele>
        <time>2015-04-12T07:47:12Z</time>
      </trkpt>
      <trkpt lat="43.26365" lon="-0.53428">
        <ele>331.79211425781</ele>
        <time>2015-04-12T07:47:26Z</time>
      </trkpt>
      <trkpt lat="43.26386" lon="-0.53421">
        <ele>331.79211425781</ele>
        <time>2015-04-12T07:47:38Z</time>
      </trkpt>
      <trkpt lat="43.26413" lon="-0.53412">
        <ele>332.75354003906</ele>
        <time>2015-04-12T07:47:54Z</time>
      </trkpt>
      <trkpt lat="43.26439" lon="-0.53396">
        <ele>333.71472167969</ele>
        <time>2015-04-12T07:48:11Z</time>
      </trkpt>
      <trkpt lat="43.26462" lon="-0.53381">
        <ele>334.19543457031</ele>
        <time>2015-04-12T07:48:27Z</time>
      </trkpt>
      <trkpt lat="43.26484" lon="-0.53373">
        <ele>335.15673828125</ele>
        <time>2015-04-12T07:48:42Z</time>
      </trkpt>
      <trkpt lat="43.26493" lon="-0.53371">
        <ele>335.15673828125</ele>
        <time>2015-04-12T07:48:49Z</time>
      </trkpt>
      <trkpt lat="43.26499" lon="-0.5337">
        <ele>335.63732910156</ele>
        <time>2015-04-12T07:48:53Z</time>
      </trkpt>
      <trkpt lat="43.26523" lon="-0.53362">
        <ele>336.1181640625</ele>
        <time>2015-04-12T07:49:09Z</time>
      </trkpt>
      <trkpt lat="43.26545" lon="-0.53349">
        <ele>336.1181640625</ele>
        <time>2015-04-12T07:49:24Z</time>
      </trkpt>
      <trkpt lat="43.26581" lon="-0.53335">
        <ele>335.63732910156</ele>
        <time>2015-04-12T07:49:48Z</time>
      </trkpt>
      <trkpt lat="43.26607" lon="-0.53332">
        <ele>332.75354003906</ele>
        <time>2015-04-12T07:50:06Z</time>
      </trkpt>
      <trkpt lat="43.26632" lon="-0.53334">
        <ele>332.27282714844</ele>
        <time>2015-04-12T07:50:23Z</time>
      </trkpt>
      <trkpt lat="43.26662" lon="-0.53343">
        <ele>328.42761230469</ele>
        <time>2015-04-12T07:50:44Z</time>
      </trkpt>
      <trkpt lat="43.26691" lon="-0.53349">
        <ele>326.5048828125</ele>
        <time>2015-04-12T07:51:04Z</time>
      </trkpt>
      <trkpt lat="43.26709" lon="-0.53357">
        <ele>323.14038085938</ele>
        <time>2015-04-12T07:51:18Z</time>
      </trkpt>
      <trkpt lat="43.26737" lon="-0.5337">
        <ele>320.73706054688</ele>
        <time>2015-04-12T07:51:39Z</time>
      </trkpt>
      <trkpt lat="43.26752" lon="-0.5338">
        <ele>316.89172363281</ele>
        <time>2015-04-12T07:51:50Z</time>
      </trkpt>
      <trkpt lat="43.26772" lon="-0.53393">
        <ele>314.0078125</ele>
        <time>2015-04-12T07:52:06Z</time>
      </trkpt>
      <trkpt lat="43.26789" lon="-0.534">
        <ele>311.12377929688</ele>
        <time>2015-04-12T07:52:20Z</time>
      </trkpt>
      <trkpt lat="43.26806" lon="-0.53405">
        <ele>310.64306640625</ele>
        <time>2015-04-12T07:52:35Z</time>
      </trkpt>
      <trkpt lat="43.26822" lon="-0.53413">
        <ele>310.16247558594</ele>
        <time>2015-04-12T07:52:47Z</time>
      </trkpt>
      <trkpt lat="43.26827" lon="-0.53409">
        <ele>310.64306640625</ele>
        <time>2015-04-12T07:53:00Z</time>
      </trkpt>
      <trkpt lat="43.26831" lon="-0.53409">
        <ele>310.16247558594</ele>
        <time>2015-04-12T07:53:20Z</time>
      </trkpt>
      <trkpt lat="43.26831" lon="-0.53409">
        <ele>310.16247558594</ele>
        <time>2015-04-12T07:53:22Z</time>
      </trkpt>
      <trkpt lat="43.26832" lon="-0.53406">
        <ele>310.64306640625</ele>
        <time>2015-04-12T07:53:35Z</time>
      </trkpt>
      <trkpt lat="43.26836" lon="-0.53407">
        <ele>310.16247558594</ele>
        <time>2015-04-12T07:53:52Z</time>
      </trkpt>
      <trkpt lat="43.26836" lon="-0.53406">
        <ele>311.12377929688</ele>
        <time>2015-04-12T07:54:10Z</time>
      </trkpt>
      <trkpt lat="43.26837" lon="-0.53409">
        <ele>310.64306640625</ele>
        <time>2015-04-12T07:54:24Z</time>
      </trkpt>
      <trkpt lat="43.26839" lon="-0.53411">
        <ele>310.16247558594</ele>
        <time>2015-04-12T07:54:43Z</time>
      </trkpt>
      <trkpt lat="43.26843" lon="-0.53412">
        <ele>309.68188476562</ele>
        <time>2015-04-12T07:54:49Z</time>
      </trkpt>
      <trkpt lat="43.26848" lon="-0.53416">
        <ele>309.68188476562</ele>
        <time>2015-04-12T07:54:55Z</time>
      </trkpt>
      <trkpt lat="43.26871" lon="-0.53438">
        <ele>309.68188476562</ele>
        <time>2015-04-12T07:55:16Z</time>
      </trkpt>
      <trkpt lat="43.26894" lon="-0.5346">
        <ele>309.201171875</ele>
        <time>2015-04-12T07:55:35Z</time>
      </trkpt>
      <trkpt lat="43.26918" lon="-0.53484">
        <ele>308.72045898438</ele>
        <time>2015-04-12T07:55:55Z</time>
      </trkpt>
      <trkpt lat="43.2694" lon="-0.53505">
        <ele>308.72045898438</ele>
        <time>2015-04-12T07:56:13Z</time>
      </trkpt>
      <trkpt lat="43.26963" lon="-0.53526">
        <ele>308.72045898438</ele>
        <time>2015-04-12T07:56:31Z</time>
      </trkpt>
      <trkpt lat="43.26984" lon="-0.53544">
        <ele>308.72045898438</ele>
        <time>2015-04-12T07:56:47Z</time>
      </trkpt>
      <trkpt lat="43.27007" lon="-0.53563">
        <ele>309.201171875</ele>
        <time>2015-04-12T07:57:05Z</time>
      </trkpt>
      <trkpt lat="43.27023" lon="-0.53575">
        <ele>309.201171875</ele>
        <time>2015-04-12T07:57:19Z</time>
      </trkpt>
      <trkpt lat="43.27047" lon="-0.5358">
        <ele>309.68188476562</ele>
        <time>2015-04-12T07:57:35Z</time>
      </trkpt>
      <trkpt lat="43.2707" lon="-0.53584">
        <ele>310.64306640625</ele>
        <time>2015-04-12T07:57:50Z</time>
      </trkpt>
      <trkpt lat="43.27096" lon="-0.53598">
        <ele>312.08520507812</ele>
        <time>2015-04-12T07:58:09Z</time>
      </trkpt>
      <trkpt lat="43.27098" lon="-0.536">
        <ele>311.6044921875</ele>
        <time>2015-04-12T07:58:11Z</time>
      </trkpt>
      <trkpt lat="43.27107" lon="-0.53603">
        <ele>311.12377929688</ele>
        <time>2015-04-12T07:58:17Z</time>
      </trkpt>
      <trkpt lat="43.27128" lon="-0.53614">
        <ele>310.16247558594</ele>
        <time>2015-04-12T07:58:30Z</time>
      </trkpt>
      <trkpt lat="43.27155" lon="-0.53615">
        <ele>310.16247558594</ele>
        <time>2015-04-12T07:58:46Z</time>
      </trkpt>
      <trkpt lat="43.2718" lon="-0.53625">
        <ele>308.23986816406</ele>
        <time>2015-04-12T07:59:03Z</time>
      </trkpt>
      <trkpt lat="43.27209" lon="-0.53638">
        <ele>308.23986816406</ele>
        <time>2015-04-12T07:59:23Z</time>
      </trkpt>
      <trkpt lat="43.27227" lon="-0.53647">
        <ele>306.31726074219</ele>
        <time>2015-04-12T07:59:36Z</time>
      </trkpt>
      <trkpt lat="43.27251" lon="-0.53656">
        <ele>305.83666992188</ele>
        <time>2015-04-12T07:59:51Z</time>
      </trkpt>
      <trkpt lat="43.27274" lon="-0.53666">
        <ele>304.39465332031</ele>
        <time>2015-04-12T08:00:07Z</time>
      </trkpt>
      <trkpt lat="43.27298" lon="-0.53675">
        <ele>303.91394042969</ele>
        <time>2015-04-12T08:00:22Z</time>
      </trkpt>
      <trkpt lat="43.27336" lon="-0.5369">
        <ele>304.39465332031</ele>
        <time>2015-04-12T08:00:47Z</time>
      </trkpt>
      <trkpt lat="43.27373" lon="-0.53707">
        <ele>303.43322753906</ele>
        <time>2015-04-12T08:01:12Z</time>
      </trkpt>
      <trkpt lat="43.27399" lon="-0.5372">
        <ele>303.43322753906</ele>
        <time>2015-04-12T08:01:30Z</time>
      </trkpt>
      <trkpt lat="43.27424" lon="-0.53735">
        <ele>302.95251464844</ele>
        <time>2015-04-12T08:01:48Z</time>
      </trkpt>
      <trkpt lat="43.27462" lon="-0.5376">
        <ele>303.91394042969</ele>
        <time>2015-04-12T08:02:15Z</time>
      </trkpt>
      <trkpt lat="43.2749" lon="-0.53778">
        <ele>302.95251464844</ele>
        <time>2015-04-12T08:02:35Z</time>
      </trkpt>
      <trkpt lat="43.27515" lon="-0.53792">
        <ele>302.47192382812</ele>
        <time>2015-04-12T08:02:53Z</time>
      </trkpt>
      <trkpt lat="43.27521" lon="-0.53794">
        <ele>302.47192382812</ele>
        <time>2015-04-12T08:02:57Z</time>
      </trkpt>
      <trkpt lat="43.27538" lon="-0.53803">
        <ele>301.02990722656</ele>
        <time>2015-04-12T08:03:09Z</time>
      </trkpt>
      <trkpt lat="43.27554" lon="-0.53816">
        <ele>298.14611816406</ele>
        <time>2015-04-12T08:03:22Z</time>
      </trkpt>
      <trkpt lat="43.27574" lon="-0.5383">
        <ele>296.7041015625</ele>
        <time>2015-04-12T08:03:37Z</time>
      </trkpt>
      <trkpt lat="43.27589" lon="-0.53846">
        <ele>295.26196289062</ele>
        <time>2015-04-12T08:03:49Z</time>
      </trkpt>
      <trkpt lat="43.27609" lon="-0.53868">
        <ele>292.85876464844</ele>
        <time>2015-04-12T08:04:05Z</time>
      </trkpt>
      <trkpt lat="43.27632" lon="-0.53881">
        <ele>291.8974609375</ele>
        <time>2015-04-12T08:04:20Z</time>
      </trkpt>
      <trkpt lat="43.27658" lon="-0.53892">
        <ele>291.8974609375</ele>
        <time>2015-04-12T08:04:38Z</time>
      </trkpt>
      <trkpt lat="43.27679" lon="-0.53906">
        <ele>289.01354980469</ele>
        <time>2015-04-12T08:04:55Z</time>
      </trkpt>
      <trkpt lat="43.27697" lon="-0.53913">
        <ele>286.61022949219</ele>
        <time>2015-04-12T08:05:07Z</time>
      </trkpt>
      <trkpt lat="43.27715" lon="-0.53923">
        <ele>285.64880371094</ele>
        <time>2015-04-12T08:05:19Z</time>
      </trkpt>
      <trkpt lat="43.2772" lon="-0.53927">
        <ele>284.68762207031</ele>
        <time>2015-04-12T08:05:23Z</time>
      </trkpt>
      <trkpt lat="43.27738" lon="-0.53942">
        <ele>282.28430175781</ele>
        <time>2015-04-12T08:05:40Z</time>
      </trkpt>
      <trkpt lat="43.27758" lon="-0.53961">
        <ele>280.84240722656</ele>
        <time>2015-04-12T08:05:56Z</time>
      </trkpt>
      <trkpt lat="43.27773" lon="-0.5397">
        <ele>278.43896484375</ele>
        <time>2015-04-12T08:06:08Z</time>
      </trkpt>
      <trkpt lat="43.2779" lon="-0.5399">
        <ele>277.47766113281</ele>
        <time>2015-04-12T08:06:20Z</time>
      </trkpt>
      <trkpt lat="43.27804" lon="-0.54001">
        <ele>275.07446289062</ele>
        <time>2015-04-12T08:06:33Z</time>
      </trkpt>
      <trkpt lat="43.27813" lon="-0.5401">
        <ele>273.15185546875</ele>
        <time>2015-04-12T08:06:42Z</time>
      </trkpt>
      <trkpt lat="43.27817" lon="-0.54014">
        <ele>272.67114257812</ele>
        <time>2015-04-12T08:06:46Z</time>
      </trkpt>
      <trkpt lat="43.27832" lon="-0.54033">
        <ele>271.70971679688</ele>
        <time>2015-04-12T08:07:00Z</time>
      </trkpt>
      <trkpt lat="43.27836" lon="-0.54036">
        <ele>271.70971679688</ele>
        <time>2015-04-12T08:07:03Z</time>
      </trkpt>
      <trkpt lat="43.27852" lon="-0.54041">
        <ele>269.30651855469</ele>
        <time>2015-04-12T08:07:16Z</time>
      </trkpt>
      <trkpt lat="43.27856" lon="-0.54046">
        <ele>267.38391113281</ele>
        <time>2015-04-12T08:07:19Z</time>
      </trkpt>
      <trkpt lat="43.27866" lon="-0.54067">
        <ele>266.42248535156</ele>
        <time>2015-04-12T08:07:28Z</time>
      </trkpt>
      <trkpt lat="43.27872" lon="-0.54065">
        <ele>264.98059082031</ele>
        <time>2015-04-12T08:07:33Z</time>
      </trkpt>
      <trkpt lat="43.27896" lon="-0.54075">
        <ele>262.09655761719</ele>
        <time>2015-04-12T08:07:49Z</time>
      </trkpt>
      <trkpt lat="43.27902" lon="-0.5408">
        <ele>261.13525390625</ele>
        <time>2015-04-12T08:07:55Z</time>
      </trkpt>
      <trkpt lat="43.27909" lon="-0.54084">
        <ele>260.17395019531</ele>
        <time>2015-04-12T08:07:59Z</time>
      </trkpt>
      <trkpt lat="43.27924" lon="-0.54103">
        <ele>256.80932617188</ele>
        <time>2015-04-12T08:08:14Z</time>
      </trkpt>
      <trkpt lat="43.2793" lon="-0.54111">
        <ele>254.40600585938</ele>
        <time>2015-04-12T08:08:23Z</time>
      </trkpt>
      <trkpt lat="43.27937" lon="-0.54122">
        <ele>252.96398925781</ele>
        <time>2015-04-12T08:08:30Z</time>
      </trkpt>
      <trkpt lat="43.2795" lon="-0.54148">
        <ele>251.04138183594</ele>
        <time>2015-04-12T08:08:44Z</time>
      </trkpt>
      <trkpt lat="43.2796" lon="-0.54167">
        <ele>248.15759277344</ele>
        <time>2015-04-12T08:08:56Z</time>
      </trkpt>
      <trkpt lat="43.27966" lon="-0.54181">
        <ele>246.71545410156</ele>
        <time>2015-04-12T08:09:01Z</time>
      </trkpt>
      <trkpt lat="43.27975" lon="-0.54198">
        <ele>244.31225585938</ele>
        <time>2015-04-12T08:09:12Z</time>
      </trkpt>
      <trkpt lat="43.27985" lon="-0.54202">
        <ele>243.83154296875</ele>
        <time>2015-04-12T08:09:20Z</time>
      </trkpt>
      <trkpt lat="43.27989" lon="-0.54207">
        <ele>241.42822265625</ele>
        <time>2015-04-12T08:09:25Z</time>
      </trkpt>
      <trkpt lat="43.28002" lon="-0.54227">
        <ele>239.02490234375</ele>
        <time>2015-04-12T08:09:39Z</time>
      </trkpt>
      <trkpt lat="43.28011" lon="-0.54241">
        <ele>236.62170410156</ele>
        <time>2015-04-12T08:09:50Z</time>
      </trkpt>
      <trkpt lat="43.28023" lon="-0.54255">
        <ele>235.1796875</ele>
        <time>2015-04-12T08:10:01Z</time>
      </trkpt>
      <trkpt lat="43.2803" lon="-0.54263">
        <ele>234.21838378906</ele>
        <time>2015-04-12T08:10:07Z</time>
      </trkpt>
      <trkpt lat="43.28039" lon="-0.54275">
        <ele>233.25708007812</ele>
        <time>2015-04-12T08:10:15Z</time>
      </trkpt>
      <trkpt lat="43.28044" lon="-0.54281">
        <ele>231.81494140625</ele>
        <time>2015-04-12T08:10:19Z</time>
      </trkpt>
      <trkpt lat="43.28055" lon="-0.54293">
        <ele>231.81494140625</ele>
        <time>2015-04-12T08:10:28Z</time>
      </trkpt>
      <trkpt lat="43.28074" lon="-0.5431">
        <ele>231.33435058594</ele>
        <time>2015-04-12T08:10:44Z</time>
      </trkpt>
      <trkpt lat="43.28089" lon="-0.54327">
        <ele>230.373046875</ele>
        <time>2015-04-12T08:10:56Z</time>
      </trkpt>
      <trkpt lat="43.28089" lon="-0.54328">
        <ele>229.89233398438</ele>
        <time>2015-04-12T08:10:57Z</time>
      </trkpt>
      <trkpt lat="43.28111" lon="-0.54331">
        <ele>228.93115234375</ele>
        <time>2015-04-12T08:11:07Z</time>
      </trkpt>
      <trkpt lat="43.28112" lon="-0.54339">
        <ele>230.373046875</ele>
        <time>2015-04-12T08:11:17Z</time>
      </trkpt>
      <trkpt lat="43.28112" lon="-0.54346">
        <ele>230.85375976562</ele>
        <time>2015-04-12T08:11:21Z</time>
      </trkpt>
      <trkpt lat="43.28111" lon="-0.54368">
        <ele>232.29577636719</ele>
        <time>2015-04-12T08:11:33Z</time>
      </trkpt>
      <trkpt lat="43.2811" lon="-0.5438">
        <ele>233.25708007812</ele>
        <time>2015-04-12T08:11:41Z</time>
      </trkpt>
      <trkpt lat="43.2811" lon="-0.54387">
        <ele>233.25708007812</ele>
        <time>2015-04-12T08:11:45Z</time>
      </trkpt>
      <trkpt lat="43.28113" lon="-0.54409">
        <ele>235.1796875</ele>
        <time>2015-04-12T08:11:58Z</time>
      </trkpt>
      <trkpt lat="43.2812" lon="-0.54423">
        <ele>237.10229492188</ele>
        <time>2015-04-12T08:12:08Z</time>
      </trkpt>
      <trkpt lat="43.28123" lon="-0.5445">
        <ele>239.98620605469</ele>
        <time>2015-04-12T08:12:24Z</time>
      </trkpt>
      <trkpt lat="43.28123" lon="-0.54454">
        <ele>239.98620605469</ele>
        <time>2015-04-12T08:12:27Z</time>
      </trkpt>
      <trkpt lat="43.28124" lon="-0.54457">
        <ele>240.46704101562</ele>
        <time>2015-04-12T08:12:29Z</time>
      </trkpt>
      <trkpt lat="43.28124" lon="-0.54462">
        <ele>240.46704101562</ele>
        <time>2015-04-12T08:12:32Z</time>
      </trkpt>
      <trkpt lat="43.28124" lon="-0.54466">
        <ele>241.42822265625</ele>
        <time>2015-04-12T08:12:35Z</time>
      </trkpt>
      <trkpt lat="43.28125" lon="-0.54476">
        <ele>242.3896484375</ele>
        <time>2015-04-12T08:12:40Z</time>
      </trkpt>
      <trkpt lat="43.28133" lon="-0.54502">
        <ele>244.31225585938</ele>
        <time>2015-04-12T08:12:55Z</time>
      </trkpt>
      <trkpt lat="43.28133" lon="-0.54504">
        <ele>244.79284667969</ele>
        <time>2015-04-12T08:12:56Z</time>
      </trkpt>
      <trkpt lat="43.28133" lon="-0.54507">
        <ele>245.75415039062</ele>
        <time>2015-04-12T08:12:58Z</time>
      </trkpt>
      <trkpt lat="43.28119" lon="-0.54513">
        <ele>249.11877441406</ele>
        <time>2015-04-12T08:13:12Z</time>
      </trkpt>
      <trkpt lat="43.28106" lon="-0.54513">
        <ele>251.04138183594</ele>
        <time>2015-04-12T08:13:25Z</time>
      </trkpt>
      <trkpt lat="43.28103" lon="-0.54527">
        <ele>254.88659667969</ele>
        <time>2015-04-12T08:13:38Z</time>
      </trkpt>
      <trkpt lat="43.28104" lon="-0.54532">
        <ele>254.88659667969</ele>
        <time>2015-04-12T08:13:42Z</time>
      </trkpt>
      <trkpt lat="43.28114" lon="-0.54557">
        <ele>257.77075195312</ele>
        <time>2015-04-12T08:13:58Z</time>
      </trkpt>
      <trkpt lat="43.28123" lon="-0.54578">
        <ele>261.13525390625</ele>
        <time>2015-04-12T08:14:11Z</time>
      </trkpt>
      <trkpt lat="43.28133" lon="-0.54605">
        <ele>264.01928710938</ele>
        <time>2015-04-12T08:14:28Z</time>
      </trkpt>
      <trkpt lat="43.28141" lon="-0.54636">
        <ele>266.42248535156</ele>
        <time>2015-04-12T08:14:47Z</time>
      </trkpt>
      <trkpt lat="43.28151" lon="-0.54665">
        <ele>269.30651855469</ele>
        <time>2015-04-12T08:15:04Z</time>
      </trkpt>
      <trkpt lat="43.28161" lon="-0.54699">
        <ele>270.26770019531</ele>
        <time>2015-04-12T08:15:23Z</time>
      </trkpt>
      <trkpt lat="43.28164" lon="-0.54706">
        <ele>270.26770019531</ele>
        <time>2015-04-12T08:15:27Z</time>
      </trkpt>
      <trkpt lat="43.28166" lon="-0.54714">
        <ele>272.1904296875</ele>
        <time>2015-04-12T08:15:32Z</time>
      </trkpt>
      <trkpt lat="43.28165" lon="-0.54719">
        <ele>273.15185546875</ele>
        <time>2015-04-12T08:15:36Z</time>
      </trkpt>
      <trkpt lat="43.28163" lon="-0.54722">
        <ele>273.63244628906</ele>
        <time>2015-04-12T08:15:38Z</time>
      </trkpt>
      <trkpt lat="43.2815" lon="-0.54719">
        <ele>276.51635742188</ele>
        <time>2015-04-12T08:15:52Z</time>
      </trkpt>
      <trkpt lat="43.28147" lon="-0.54719">
        <ele>276.9970703125</ele>
        <time>2015-04-12T08:15:55Z</time>
      </trkpt>
      <trkpt lat="43.28141" lon="-0.54719">
        <ele>278.43896484375</ele>
        <time>2015-04-12T08:16:01Z</time>
      </trkpt>
      <trkpt lat="43.28127" lon="-0.54715">
        <ele>281.32299804688</ele>
        <time>2015-04-12T08:16:14Z</time>
      </trkpt>
      <trkpt lat="43.28116" lon="-0.54715">
        <ele>283.72619628906</ele>
        <time>2015-04-12T08:16:24Z</time>
      </trkpt>
      <trkpt lat="43.28103" lon="-0.54713">
        <ele>287.0908203125</ele>
        <time>2015-04-12T08:16:35Z</time>
      </trkpt>
      <trkpt lat="43.28102" lon="-0.54713">
        <ele>286.12951660156</ele>
        <time>2015-04-12T08:16:36Z</time>
      </trkpt>
      <trkpt lat="43.28081" lon="-0.54708">
        <ele>288.53295898438</ele>
        <time>2015-04-12T08:16:53Z</time>
      </trkpt>
      <trkpt lat="43.2806" lon="-0.54713">
        <ele>291.41674804688</ele>
        <time>2015-04-12T08:17:09Z</time>
      </trkpt>
      <trkpt lat="43.28032" lon="-0.54721">
        <ele>293.82006835938</ele>
        <time>2015-04-12T08:17:30Z</time>
      </trkpt>
      <trkpt lat="43.28013" lon="-0.54723">
        <ele>297.18469238281</ele>
        <time>2015-04-12T08:17:44Z</time>
      </trkpt>
      <trkpt lat="43.27998" lon="-0.54724">
        <ele>300.54931640625</ele>
        <time>2015-04-12T08:17:57Z</time>
      </trkpt>
      <trkpt lat="43.27984" lon="-0.54724">
        <ele>303.43322753906</ele>
        <time>2015-04-12T08:18:09Z</time>
      </trkpt>
      <trkpt lat="43.27973" lon="-0.54726">
        <ele>306.7978515625</ele>
        <time>2015-04-12T08:18:19Z</time>
      </trkpt>
      <trkpt lat="43.27959" lon="-0.5473">
        <ele>307.75927734375</ele>
        <time>2015-04-12T08:18:31Z</time>
      </trkpt>
      <trkpt lat="43.2793" lon="-0.54736">
        <ele>311.12377929688</ele>
        <time>2015-04-12T08:18:53Z</time>
      </trkpt>
      <trkpt lat="43.27923" lon="-0.54738">
        <ele>311.6044921875</ele>
        <time>2015-04-12T08:18:58Z</time>
      </trkpt>
      <trkpt lat="43.27903" lon="-0.54741">
        <ele>313.52722167969</ele>
        <time>2015-04-12T08:19:13Z</time>
      </trkpt>
      <trkpt lat="43.27889" lon="-0.54762">
        <ele>314.0078125</ele>
        <time>2015-04-12T08:19:28Z</time>
      </trkpt>
      <trkpt lat="43.27883" lon="-0.54797">
        <ele>313.52722167969</ele>
        <time>2015-04-12T08:19:48Z</time>
      </trkpt>
      <trkpt lat="43.27884" lon="-0.54798">
        <ele>314.0078125</ele>
        <time>2015-04-12T08:19:51Z</time>
      </trkpt>
      <trkpt lat="43.27891" lon="-0.54806">
        <ele>314.0078125</ele>
        <time>2015-04-12T08:20:00Z</time>
      </trkpt>
      <trkpt lat="43.27897" lon="-0.54803">
        <ele>314.48840332031</ele>
        <time>2015-04-12T08:20:23Z</time>
      </trkpt>
      <trkpt lat="43.27899" lon="-0.54803">
        <ele>313.52722167969</ele>
        <time>2015-04-12T08:20:46Z</time>
      </trkpt>
      <trkpt lat="43.27889" lon="-0.54801">
        <ele>313.52722167969</ele>
        <time>2015-04-12T08:20:59Z</time>
      </trkpt>
      <trkpt lat="43.27892" lon="-0.54807">
        <ele>314.0078125</ele>
        <time>2015-04-12T08:21:15Z</time>
      </trkpt>
      <trkpt lat="43.27903" lon="-0.54806">
        <ele>313.52722167969</ele>
        <time>2015-04-12T08:21:46Z</time>
      </trkpt>
      <trkpt lat="43.27905" lon="-0.54812">
        <ele>314.48840332031</ele>
        <time>2015-04-12T08:23:02Z</time>
      </trkpt>
      <trkpt lat="43.27909" lon="-0.54823">
        <ele>314.48840332031</ele>
        <time>2015-04-12T08:23:18Z</time>
      </trkpt>
      <trkpt lat="43.27923" lon="-0.54838">
        <ele>314.96911621094</ele>
        <time>2015-04-12T08:23:35Z</time>
      </trkpt>
      <trkpt lat="43.27947" lon="-0.54856">
        <ele>315.93041992188</ele>
        <time>2015-04-12T08:23:55Z</time>
      </trkpt>
      <trkpt lat="43.2797" lon="-0.54876">
        <ele>315.93041992188</ele>
        <time>2015-04-12T08:24:14Z</time>
      </trkpt>
      <trkpt lat="43.27997" lon="-0.54902">
        <ele>314.96911621094</ele>
        <time>2015-04-12T08:24:36Z</time>
      </trkpt>
      <trkpt lat="43.28023" lon="-0.54926">
        <ele>314.0078125</ele>
        <time>2015-04-12T08:24:57Z</time>
      </trkpt>
      <trkpt lat="43.2805" lon="-0.54946">
        <ele>311.6044921875</ele>
        <time>2015-04-12T08:25:20Z</time>
      </trkpt>
      <trkpt lat="43.28059" lon="-0.54952">
        <ele>309.201171875</ele>
        <time>2015-04-12T08:25:29Z</time>
      </trkpt>
      <trkpt lat="43.28073" lon="-0.54965">
        <ele>308.23986816406</ele>
        <time>2015-04-12T08:25:42Z</time>
      </trkpt>
      <trkpt lat="43.28087" lon="-0.54979">
        <ele>304.87524414062</ele>
        <time>2015-04-12T08:25:58Z</time>
      </trkpt>
      <trkpt lat="43.28096" lon="-0.54985">
        <ele>304.39465332031</ele>
        <time>2015-04-12T08:26:07Z</time>
      </trkpt>
      <trkpt lat="43.28113" lon="-0.55004">
        <ele>301.51062011719</ele>
        <time>2015-04-12T08:26:23Z</time>
      </trkpt>
      <trkpt lat="43.28128" lon="-0.55023">
        <ele>299.58801269531</ele>
        <time>2015-04-12T08:26:37Z</time>
      </trkpt>
      <trkpt lat="43.28144" lon="-0.55033">
        <ele>297.66540527344</ele>
        <time>2015-04-12T08:26:50Z</time>
      </trkpt>
      <trkpt lat="43.28161" lon="-0.55045">
        <ele>294.78137207031</ele>
        <time>2015-04-12T08:27:04Z</time>
      </trkpt>
      <trkpt lat="43.28172" lon="-0.55054">
        <ele>294.30078125</ele>
        <time>2015-04-12T08:27:14Z</time>
      </trkpt>
      <trkpt lat="43.28181" lon="-0.55065">
        <ele>291.41674804688</ele>
        <time>2015-04-12T08:27:26Z</time>
      </trkpt>
      <trkpt lat="43.28194" lon="-0.55081">
        <ele>289.01354980469</ele>
        <time>2015-04-12T08:27:39Z</time>
      </trkpt>
      <trkpt lat="43.28211" lon="-0.55098">
        <ele>286.61022949219</ele>
        <time>2015-04-12T08:27:55Z</time>
      </trkpt>
      <trkpt lat="43.28216" lon="-0.55102">
        <ele>285.64880371094</ele>
        <time>2015-04-12T08:28:02Z</time>
      </trkpt>
      <trkpt lat="43.28212" lon="-0.55107">
        <ele>285.16821289062</ele>
        <time>2015-04-12T08:28:16Z</time>
      </trkpt>
      <trkpt lat="43.28204" lon="-0.55105">
        <ele>283.24560546875</ele>
        <time>2015-04-12T08:28:31Z</time>
      </trkpt>
      <trkpt lat="43.28201" lon="-0.55104">
        <ele>282.28430175781</ele>
        <time>2015-04-12T08:28:34Z</time>
      </trkpt>
      <trkpt lat="43.28187" lon="-0.55103">
        <ele>280.84240722656</ele>
        <time>2015-04-12T08:28:48Z</time>
      </trkpt>
      <trkpt lat="43.2817" lon="-0.55099">
        <ele>280.36169433594</ele>
        <time>2015-04-12T08:29:01Z</time>
      </trkpt>
      <trkpt lat="43.28154" lon="-0.55095">
        <ele>280.36169433594</ele>
        <time>2015-04-12T08:29:16Z</time>
      </trkpt>
      <trkpt lat="43.2813" lon="-0.55094">
        <ele>280.84240722656</ele>
        <time>2015-04-12T08:29:30Z</time>
      </trkpt>
      <trkpt lat="43.28102" lon="-0.55097">
        <ele>281.32299804688</ele>
        <time>2015-04-12T08:29:46Z</time>
      </trkpt>
      <trkpt lat="43.28086" lon="-0.55095">
        <ele>279.880859375</ele>
        <time>2015-04-12T08:29:58Z</time>
      </trkpt>
      <trkpt lat="43.28065" lon="-0.5509">
        <ele>277.95825195312</ele>
        <time>2015-04-12T08:30:13Z</time>
      </trkpt>
      <trkpt lat="43.2804" lon="-0.55084">
        <ele>276.51635742188</ele>
        <time>2015-04-12T08:30:28Z</time>
      </trkpt>
      <trkpt lat="43.28023" lon="-0.55076">
        <ele>276.51635742188</ele>
        <time>2015-04-12T08:30:41Z</time>
      </trkpt>
      <trkpt lat="43.28006" lon="-0.55073">
        <ele>275.55505371094</ele>
        <time>2015-04-12T08:30:54Z</time>
      </trkpt>
      <trkpt lat="43.27993" lon="-0.55074">
        <ele>274.59375</ele>
        <time>2015-04-12T08:31:06Z</time>
      </trkpt>
      <trkpt lat="43.27976" lon="-0.55077">
        <ele>274.59375</ele>
        <time>2015-04-12T08:31:20Z</time>
      </trkpt>
      <trkpt lat="43.27964" lon="-0.55079">
        <ele>275.55505371094</ele>
        <time>2015-04-12T08:31:31Z</time>
      </trkpt>
      <trkpt lat="43.27953" lon="-0.5508">
        <ele>275.07446289062</ele>
        <time>2015-04-12T08:31:39Z</time>
      </trkpt>
      <trkpt lat="43.27931" lon="-0.55077">
        <ele>273.63244628906</ele>
        <time>2015-04-12T08:31:50Z</time>
      </trkpt>
      <trkpt lat="43.27911" lon="-0.55072">
        <ele>271.70971679688</ele>
        <time>2015-04-12T08:32:03Z</time>
      </trkpt>
      <trkpt lat="43.27886" lon="-0.55065">
        <ele>269.787109375</ele>
        <time>2015-04-12T08:32:18Z</time>
      </trkpt>
      <trkpt lat="43.27869" lon="-0.55056">
        <ele>268.82580566406</ele>
        <time>2015-04-12T08:32:30Z</time>
      </trkpt>
      <trkpt lat="43.27858" lon="-0.5505">
        <ele>266.90319824219</ele>
        <time>2015-04-12T08:32:41Z</time>
      </trkpt>
      <trkpt lat="43.27852" lon="-0.55047">
        <ele>266.42248535156</ele>
        <time>2015-04-12T08:32:45Z</time>
      </trkpt>
      <trkpt lat="43.27842" lon="-0.55048">
        <ele>264.49987792969</ele>
        <time>2015-04-12T08:32:50Z</time>
      </trkpt>
      <trkpt lat="43.27823" lon="-0.55049">
        <ele>261.61596679688</ele>
        <time>2015-04-12T08:33:02Z</time>
      </trkpt>
      <trkpt lat="43.27816" lon="-0.55054">
        <ele>261.13525390625</ele>
        <time>2015-04-12T08:33:05Z</time>
      </trkpt>
      <trkpt lat="43.27821" lon="-0.55077">
        <ele>258.73193359375</ele>
        <time>2015-04-12T08:33:20Z</time>
      </trkpt>
      <trkpt lat="43.27831" lon="-0.55091">
        <ele>256.80932617188</ele>
        <time>2015-04-12T08:33:31Z</time>
      </trkpt>
      <trkpt lat="43.27846" lon="-0.55108">
        <ele>256.80932617188</ele>
        <time>2015-04-12T08:33:46Z</time>
      </trkpt>
      <trkpt lat="43.27866" lon="-0.55123">
        <ele>256.32873535156</ele>
        <time>2015-04-12T08:34:02Z</time>
      </trkpt>
      <trkpt lat="43.27885" lon="-0.55142">
        <ele>255.36730957031</ele>
        <time>2015-04-12T08:34:20Z</time>
      </trkpt>
      <trkpt lat="43.27902" lon="-0.55153">
        <ele>254.88659667969</ele>
        <time>2015-04-12T08:34:34Z</time>
      </trkpt>
      <trkpt lat="43.27922" lon="-0.55168">
        <ele>253.44470214844</ele>
        <time>2015-04-12T08:34:49Z</time>
      </trkpt>
      <trkpt lat="43.27938" lon="-0.55181">
        <ele>252.4833984375</ele>
        <time>2015-04-12T08:35:04Z</time>
      </trkpt>
      <trkpt lat="43.27958" lon="-0.55194">
        <ele>250.08020019531</ele>
        <time>2015-04-12T08:35:18Z</time>
      </trkpt>
      <trkpt lat="43.2796" lon="-0.55196">
        <ele>250.08020019531</ele>
        <time>2015-04-12T08:35:20Z</time>
      </trkpt>
      <trkpt lat="43.27982" lon="-0.55216">
        <ele>247.6767578125</ele>
        <time>2015-04-12T08:35:39Z</time>
      </trkpt>
      <trkpt lat="43.28006" lon="-0.5523">
        <ele>245.2734375</ele>
        <time>2015-04-12T08:35:57Z</time>
      </trkpt>
      <trkpt lat="43.28026" lon="-0.55246">
        <ele>243.83154296875</ele>
        <time>2015-04-12T08:36:13Z</time>
      </trkpt>
      <trkpt lat="43.28042" lon="-0.55263">
        <ele>241.90893554688</ele>
        <time>2015-04-12T08:36:30Z</time>
      </trkpt>
      <trkpt lat="43.28065" lon="-0.55275">
        <ele>239.98620605469</ele>
        <time>2015-04-12T08:36:47Z</time>
      </trkpt>
      <trkpt lat="43.28073" lon="-0.55282">
        <ele>239.50549316406</ele>
        <time>2015-04-12T08:36:55Z</time>
      </trkpt>
      <trkpt lat="43.28091" lon="-0.55292">
        <ele>238.54431152344</ele>
        <time>2015-04-12T08:37:08Z</time>
      </trkpt>
      <trkpt lat="43.28095" lon="-0.55296">
        <ele>238.54431152344</ele>
        <time>2015-04-12T08:37:12Z</time>
      </trkpt>
      <trkpt lat="43.28117" lon="-0.55311">
        <ele>237.10229492188</ele>
        <time>2015-04-12T08:37:28Z</time>
      </trkpt>
      <trkpt lat="43.28131" lon="-0.55319">
        <ele>236.14099121094</ele>
        <time>2015-04-12T08:37:40Z</time>
      </trkpt>
      <trkpt lat="43.28137" lon="-0.55325">
        <ele>236.14099121094</ele>
        <time>2015-04-12T08:37:45Z</time>
      </trkpt>
      <trkpt lat="43.28155" lon="-0.55337">
        <ele>236.14099121094</ele>
        <time>2015-04-12T08:37:59Z</time>
      </trkpt>
      <trkpt lat="43.28168" lon="-0.55345">
        <ele>234.69909667969</ele>
        <time>2015-04-12T08:38:11Z</time>
      </trkpt>
      <trkpt lat="43.28186" lon="-0.55357">
        <ele>233.73767089844</ele>
        <time>2015-04-12T08:38:24Z</time>
      </trkpt>
      <trkpt lat="43.28212" lon="-0.55363">
        <ele>231.33435058594</ele>
        <time>2015-04-12T08:38:40Z</time>
      </trkpt>
      <trkpt lat="43.28232" lon="-0.55363">
        <ele>229.89233398438</ele>
        <time>2015-04-12T08:38:52Z</time>
      </trkpt>
      <trkpt lat="43.28251" lon="-0.55369">
        <ele>227.9697265625</ele>
        <time>2015-04-12T08:39:07Z</time>
      </trkpt>
      <trkpt lat="43.28275" lon="-0.55369">
        <ele>226.52783203125</ele>
        <time>2015-04-12T08:39:22Z</time>
      </trkpt>
      <trkpt lat="43.28282" lon="-0.55368">
        <ele>225.56652832031</ele>
        <time>2015-04-12T08:39:27Z</time>
      </trkpt>
      <trkpt lat="43.28297" lon="-0.55369">
        <ele>225.0859375</ele>
        <time>2015-04-12T08:39:38Z</time>
      </trkpt>
      <trkpt lat="43.28321" lon="-0.5537">
        <ele>224.12451171875</ele>
        <time>2015-04-12T08:39:54Z</time>
      </trkpt>
      <trkpt lat="43.28342" lon="-0.55371">
        <ele>223.16320800781</ele>
        <time>2015-04-12T08:40:08Z</time>
      </trkpt>
      <trkpt lat="43.28357" lon="-0.55373">
        <ele>222.68249511719</ele>
        <time>2015-04-12T08:40:19Z</time>
      </trkpt>
      <trkpt lat="43.28385" lon="-0.55383">
        <ele>221.24060058594</ele>
        <time>2015-04-12T08:40:39Z</time>
      </trkpt>
      <trkpt lat="43.28404" lon="-0.55386">
        <ele>219.79858398438</ele>
        <time>2015-04-12T08:40:52Z</time>
      </trkpt>
      <trkpt lat="43.28434" lon="-0.55379">
        <ele>219.79858398438</ele>
        <time>2015-04-12T08:41:10Z</time>
      </trkpt>
      <trkpt lat="43.28461" lon="-0.55373">
        <ele>220.75988769531</ele>
        <time>2015-04-12T08:41:27Z</time>
      </trkpt>
      <trkpt lat="43.2848" lon="-0.55368">
        <ele>218.83728027344</ele>
        <time>2015-04-12T08:41:42Z</time>
      </trkpt>
      <trkpt lat="43.28486" lon="-0.55366">
        <ele>218.83728027344</ele>
        <time>2015-04-12T08:41:47Z</time>
      </trkpt>
      <trkpt lat="43.28506" lon="-0.55364">
        <ele>217.39538574219</ele>
        <time>2015-04-12T08:42:03Z</time>
      </trkpt>
      <trkpt lat="43.28532" lon="-0.55364">
        <ele>214.99194335938</ele>
        <time>2015-04-12T08:42:23Z</time>
      </trkpt>
      <trkpt lat="43.28558" lon="-0.55374">
        <ele>214.03063964844</ele>
        <time>2015-04-12T08:42:42Z</time>
      </trkpt>
      <trkpt lat="43.2859" lon="-0.55375">
        <ele>214.03063964844</ele>
        <time>2015-04-12T08:43:02Z</time>
      </trkpt>
      <trkpt lat="43.28626" lon="-0.55369">
        <ele>214.03063964844</ele>
        <time>2015-04-12T08:43:24Z</time>
      </trkpt>
      <trkpt lat="43.2866" lon="-0.55366">
        <ele>214.03063964844</ele>
        <time>2015-04-12T08:43:47Z</time>
      </trkpt>
      <trkpt lat="43.28691" lon="-0.55364">
        <ele>214.51123046875</ele>
        <time>2015-04-12T08:44:08Z</time>
      </trkpt>
      <trkpt lat="43.2872" lon="-0.55365">
        <ele>214.51123046875</ele>
        <time>2015-04-12T08:44:29Z</time>
      </trkpt>
      <trkpt lat="43.28748" lon="-0.5537">
        <ele>214.99194335938</ele>
        <time>2015-04-12T08:44:49Z</time>
      </trkpt>
      <trkpt lat="43.28783" lon="-0.55378">
        <ele>215.95324707031</ele>
        <time>2015-04-12T08:45:13Z</time>
      </trkpt>
      <trkpt lat="43.28809" lon="-0.55382">
        <ele>216.43395996094</ele>
        <time>2015-04-12T08:45:31Z</time>
      </trkpt>
      <trkpt lat="43.28841" lon="-0.55388">
        <ele>217.39538574219</ele>
        <time>2015-04-12T08:45:52Z</time>
      </trkpt>
      <trkpt lat="43.28878" lon="-0.55403">
        <ele>218.35656738281</ele>
        <time>2015-04-12T08:46:19Z</time>
      </trkpt>
      <trkpt lat="43.289" lon="-0.5542">
        <ele>218.83728027344</ele>
        <time>2015-04-12T08:46:37Z</time>
      </trkpt>
      <trkpt lat="43.28921" lon="-0.55438">
        <ele>218.83728027344</ele>
        <time>2015-04-12T08:46:54Z</time>
      </trkpt>
      <trkpt lat="43.28949" lon="-0.5546">
        <ele>218.83728027344</ele>
        <time>2015-04-12T08:47:17Z</time>
      </trkpt>
      <trkpt lat="43.2897" lon="-0.55478">
        <ele>219.79858398438</ele>
        <time>2015-04-12T08:47:36Z</time>
      </trkpt>
      <trkpt lat="43.28994" lon="-0.55498">
        <ele>220.27917480469</ele>
        <time>2015-04-12T08:47:56Z</time>
      </trkpt>
      <trkpt lat="43.2901" lon="-0.55512">
        <ele>221.24060058594</ele>
        <time>2015-04-12T08:48:10Z</time>
      </trkpt>
      <trkpt lat="43.2901" lon="-0.55519">
        <ele>221.72119140625</ele>
        <time>2015-04-12T08:48:14Z</time>
      </trkpt>
      <trkpt lat="43.2901" lon="-0.55524">
        <ele>222.20178222656</ele>
        <time>2015-04-12T08:48:17Z</time>
      </trkpt>
      <trkpt lat="43.29016" lon="-0.55555">
        <ele>224.60522460938</ele>
        <time>2015-04-12T08:48:35Z</time>
      </trkpt>
      <trkpt lat="43.29016" lon="-0.55559">
        <ele>226.52783203125</ele>
        <time>2015-04-12T08:48:37Z</time>
      </trkpt>
      <trkpt lat="43.2902" lon="-0.55579">
        <ele>227.00854492188</ele>
        <time>2015-04-12T08:48:49Z</time>
      </trkpt>
      <trkpt lat="43.29021" lon="-0.55585">
        <ele>227.00854492188</ele>
        <time>2015-04-12T08:48:53Z</time>
      </trkpt>
      <trkpt lat="43.29033" lon="-0.55588">
        <ele>227.48913574219</ele>
        <time>2015-04-12T08:49:07Z</time>
      </trkpt>
      <trkpt lat="43.29051" lon="-0.55599">
        <ele>225.56652832031</ele>
        <time>2015-04-12T08:49:25Z</time>
      </trkpt>
      <trkpt lat="43.29068" lon="-0.55611">
        <ele>224.12451171875</ele>
        <time>2015-04-12T08:49:41Z</time>
      </trkpt>
      <trkpt lat="43.29088" lon="-0.55623">
        <ele>224.12451171875</ele>
        <time>2015-04-12T08:49:58Z</time>
      </trkpt>
      <trkpt lat="43.2911" lon="-0.55629">
        <ele>224.12451171875</ele>
        <time>2015-04-12T08:50:16Z</time>
      </trkpt>
      <trkpt lat="43.29122" lon="-0.55624">
        <ele>222.20178222656</ele>
        <time>2015-04-12T08:50:25Z</time>
      </trkpt>
      <trkpt lat="43.29147" lon="-0.55629">
        <ele>220.75988769531</ele>
        <time>2015-04-12T08:50:44Z</time>
      </trkpt>
      <trkpt lat="43.2917" lon="-0.55639">
        <ele>221.72119140625</ele>
        <time>2015-04-12T08:51:03Z</time>
      </trkpt>
      <trkpt lat="43.29197" lon="-0.55652">
        <ele>222.68249511719</ele>
        <time>2015-04-12T08:51:26Z</time>
      </trkpt>
      <trkpt lat="43.29215" lon="-0.55668">
        <ele>223.64379882812</ele>
        <time>2015-04-12T08:51:45Z</time>
      </trkpt>
      <trkpt lat="43.29224" lon="-0.55681">
        <ele>225.0859375</ele>
        <time>2015-04-12T08:51:59Z</time>
      </trkpt>
      <trkpt lat="43.2924" lon="-0.55698">
        <ele>226.04711914062</ele>
        <time>2015-04-12T08:52:16Z</time>
      </trkpt>
      <trkpt lat="43.29257" lon="-0.5571">
        <ele>227.48913574219</ele>
        <time>2015-04-12T08:52:33Z</time>
      </trkpt>
      <trkpt lat="43.29261" lon="-0.55717">
        <ele>227.9697265625</ele>
        <time>2015-04-12T08:52:40Z</time>
      </trkpt>
      <trkpt lat="43.29257" lon="-0.55743">
        <ele>229.41174316406</ele>
        <time>2015-04-12T08:52:58Z</time>
      </trkpt>
      <trkpt lat="43.29245" lon="-0.55765">
        <ele>231.81494140625</ele>
        <time>2015-04-12T08:53:16Z</time>
      </trkpt>
      <trkpt lat="43.29235" lon="-0.55792">
        <ele>234.21838378906</ele>
        <time>2015-04-12T08:53:36Z</time>
      </trkpt>
      <trkpt lat="43.29224" lon="-0.55813">
        <ele>236.62170410156</ele>
        <time>2015-04-12T08:53:54Z</time>
      </trkpt>
      <trkpt lat="43.29213" lon="-0.55836">
        <ele>239.50549316406</ele>
        <time>2015-04-12T08:54:12Z</time>
      </trkpt>
      <trkpt lat="43.29209" lon="-0.55843">
        <ele>239.50549316406</ele>
        <time>2015-04-12T08:54:18Z</time>
      </trkpt>
      <trkpt lat="43.29198" lon="-0.55839">
        <ele>239.98620605469</ele>
        <time>2015-04-12T08:54:31Z</time>
      </trkpt>
      <trkpt lat="43.29174" lon="-0.55828">
        <ele>239.50549316406</ele>
        <time>2015-04-12T08:54:53Z</time>
      </trkpt>
      <trkpt lat="43.29155" lon="-0.55824">
        <ele>239.02490234375</ele>
        <time>2015-04-12T08:55:10Z</time>
      </trkpt>
      <trkpt lat="43.29135" lon="-0.55816">
        <ele>237.58288574219</ele>
        <time>2015-04-12T08:55:25Z</time>
      </trkpt>
      <trkpt lat="43.29117" lon="-0.55805">
        <ele>235.66027832031</ele>
        <time>2015-04-12T08:55:39Z</time>
      </trkpt>
      <trkpt lat="43.29093" lon="-0.55789">
        <ele>235.1796875</ele>
        <time>2015-04-12T08:56:00Z</time>
      </trkpt>
      <trkpt lat="43.29069" lon="-0.55769">
        <ele>235.1796875</ele>
        <time>2015-04-12T08:56:20Z</time>
      </trkpt>
      <trkpt lat="43.2905" lon="-0.55753">
        <ele>235.66027832031</ele>
        <time>2015-04-12T08:56:38Z</time>
      </trkpt>
      <trkpt lat="43.29039" lon="-0.55743">
        <ele>235.1796875</ele>
        <time>2015-04-12T08:56:48Z</time>
      </trkpt>
      <trkpt lat="43.29025" lon="-0.55724">
        <ele>234.21838378906</ele>
        <time>2015-04-12T08:57:03Z</time>
      </trkpt>
      <trkpt lat="43.29006" lon="-0.55708">
        <ele>236.14099121094</ele>
        <time>2015-04-12T08:57:20Z</time>
      </trkpt>
      <trkpt lat="43.28985" lon="-0.55705">
        <ele>237.58288574219</ele>
        <time>2015-04-12T08:57:37Z</time>
      </trkpt>
      <trkpt lat="43.28972" lon="-0.55706">
        <ele>240.46704101562</ele>
        <time>2015-04-12T08:57:48Z</time>
      </trkpt>
      <trkpt lat="43.28953" lon="-0.55712">
        <ele>243.83154296875</ele>
        <time>2015-04-12T08:58:07Z</time>
      </trkpt>
      <trkpt lat="43.28928" lon="-0.55713">
        <ele>245.75415039062</ele>
        <time>2015-04-12T08:58:26Z</time>
      </trkpt>
      <trkpt lat="43.28907" lon="-0.55712">
        <ele>247.19604492188</ele>
        <time>2015-04-12T08:58:43Z</time>
      </trkpt>
      <trkpt lat="43.28891" lon="-0.55712">
        <ele>248.63818359375</ele>
        <time>2015-04-12T08:58:59Z</time>
      </trkpt>
      <trkpt lat="43.28876" lon="-0.55712">
        <ele>250.56079101562</ele>
        <time>2015-04-12T08:59:13Z</time>
      </trkpt>
      <trkpt lat="43.28855" lon="-0.55717">
        <ele>253.92541503906</ele>
        <time>2015-04-12T08:59:27Z</time>
      </trkpt>
      <trkpt lat="43.28847" lon="-0.55718">
        <ele>253.92541503906</ele>
        <time>2015-04-12T08:59:32Z</time>
      </trkpt>
      <trkpt lat="43.28832" lon="-0.55721">
        <ele>254.88659667969</ele>
        <time>2015-04-12T08:59:45Z</time>
      </trkpt>
      <trkpt lat="43.2882" lon="-0.55725">
        <ele>255.84802246094</ele>
        <time>2015-04-12T08:59:57Z</time>
      </trkpt>
      <trkpt lat="43.28806" lon="-0.55729">
        <ele>257.2900390625</ele>
        <time>2015-04-12T09:00:09Z</time>
      </trkpt>
      <trkpt lat="43.2879" lon="-0.55735">
        <ele>258.25134277344</ele>
        <time>2015-04-12T09:00:21Z</time>
      </trkpt>
      <trkpt lat="43.28772" lon="-0.55741">
        <ele>260.17395019531</ele>
        <time>2015-04-12T09:00:35Z</time>
      </trkpt>
      <trkpt lat="43.28766" lon="-0.55741">
        <ele>261.61596679688</ele>
        <time>2015-04-12T09:00:40Z</time>
      </trkpt>
      <trkpt lat="43.28748" lon="-0.55743">
        <ele>263.05786132812</ele>
        <time>2015-04-12T09:00:54Z</time>
      </trkpt>
      <trkpt lat="43.28729" lon="-0.55743">
        <ele>265.94189453125</ele>
        <time>2015-04-12T09:01:08Z</time>
      </trkpt>
      <trkpt lat="43.28707" lon="-0.55745">
        <ele>269.30651855469</ele>
        <time>2015-04-12T09:01:24Z</time>
      </trkpt>
      <trkpt lat="43.28684" lon="-0.55747">
        <ele>269.787109375</ele>
        <time>2015-04-12T09:01:41Z</time>
      </trkpt>
      <trkpt lat="43.28657" lon="-0.55755">
        <ele>272.1904296875</ele>
        <time>2015-04-12T09:02:02Z</time>
      </trkpt>
      <trkpt lat="43.28651" lon="-0.55755">
        <ele>271.70971679688</ele>
        <time>2015-04-12T09:02:09Z</time>
      </trkpt>
      <trkpt lat="43.28645" lon="-0.55757">
        <ele>270.74841308594</ele>
        <time>2015-04-12T09:02:21Z</time>
      </trkpt>
      <trkpt lat="43.28646" lon="-0.55758">
        <ele>270.74841308594</ele>
        <time>2015-04-12T09:02:24Z</time>
      </trkpt>
      <trkpt lat="43.28627" lon="-0.5576">
        <ele>270.74841308594</ele>
        <time>2015-04-12T09:02:39Z</time>
      </trkpt>
      <trkpt lat="43.28603" lon="-0.55761">
        <ele>270.74841308594</ele>
        <time>2015-04-12T09:02:59Z</time>
      </trkpt>
      <trkpt lat="43.28577" lon="-0.55766">
        <ele>272.67114257812</ele>
        <time>2015-04-12T09:03:20Z</time>
      </trkpt>
      <trkpt lat="43.28551" lon="-0.55765">
        <ele>272.67114257812</ele>
        <time>2015-04-12T09:03:41Z</time>
      </trkpt>
      <trkpt lat="43.28531" lon="-0.55758">
        <ele>271.70971679688</ele>
        <time>2015-04-12T09:03:59Z</time>
      </trkpt>
      <trkpt lat="43.28517" lon="-0.55761">
        <ele>273.63244628906</ele>
        <time>2015-04-12T09:04:16Z</time>
      </trkpt>
      <trkpt lat="43.28505" lon="-0.55767">
        <ele>276.03564453125</ele>
        <time>2015-04-12T09:04:31Z</time>
      </trkpt>
      <trkpt lat="43.28486" lon="-0.55777">
        <ele>277.95825195312</ele>
        <time>2015-04-12T09:04:49Z</time>
      </trkpt>
      <trkpt lat="43.28466" lon="-0.55785">
        <ele>278.91967773438</ele>
        <time>2015-04-12T09:05:08Z</time>
      </trkpt>
      <trkpt lat="43.2845" lon="-0.55785">
        <ele>280.84240722656</ele>
        <time>2015-04-12T09:05:24Z</time>
      </trkpt>
      <trkpt lat="43.28432" lon="-0.55782">
        <ele>280.36169433594</ele>
        <time>2015-04-12T09:05:41Z</time>
      </trkpt>
    </trkseg>
  </trk>
</gpx>